Flight Track Log - Related Links

Times and Time Zones

All times are in EDT time to prevent confusion due to time zone crossing. See the AFL150 flight status page for this flight to view local times or setup timezone preferences in your user account.

Time Position Orientation Groundspeed Altitude Reporting Facility
EDT Latitude Longitude Course Direction KTS MPH feet Rate Location/Type
Mon 06:29:22 AM 55.9790 37.4660 74° East 188 216 1,400  Level FlightAware ADS-B
Mon 06:29:42 AM 55.9840 37.4950 73° East 180 207 2,300 1,800 Climbing FlightAware ADS-B
Mon 06:30:02 AM 55.9880 37.5260 77° East 198 228 2,600 900 Climbing FlightAware ADS-B
Mon 06:30:22 AM 55.9930 37.5590 75° East 222 255 2,900 1,067 Climbing FlightAware ADS-B
Mon 06:30:47 AM 56.0000 37.6060 75° East 247 284 3,400 1,200 Climbing FlightAware ADS-B
Mon 06:31:02 AM 56.0040 37.6370 77° East 263 303 3,700 1,886 Climbing FlightAware ADS-B
Mon 06:31:22 AM 56.0100 37.6790 76° East 267 307 4,500 2,229 Climbing FlightAware ADS-B
Mon 06:31:37 AM 56.0150 37.7110 74° East 274 315 5,000 2,100 Climbing FlightAware ADS-B
Mon 06:31:42 AM 56.0190 37.7220 57° Northeast 275 316 5,200 2,400 Climbing FlightAware ADS-B
Mon 06:31:47 AM 56.0230 37.7300 48° Northeast 275 316 5,400 2,400 Climbing FlightAware ADS-B
Mon 06:31:57 AM 56.0330 37.7450 40° Northeast 277 319 5,800 2,400 Climbing FlightAware ADS-B
Mon 06:32:02 AM 56.0370 37.7480 23° Northeast 279 321 6,000 2,400 Climbing FlightAware ADS-B
Mon 06:32:12 AM 56.0510 37.7540 13° North 282 325 6,400 2,400 Climbing FlightAware ADS-B
Mon 06:32:32 AM 56.0760 37.7410 344° North 282 325 7,200 2,400 Climbing FlightAware ADS-B
Mon 06:32:42 AM 56.0860 37.7260 320° Northwest 283 326 7,600 2,400 Climbing FlightAware ADS-B
Mon 06:32:52 AM 56.0930 37.7070 303° West 283 326 8,000 2,400 Climbing FlightAware ADS-B
Mon 06:33:02 AM 56.0970 37.6850 288° West 284 327 8,400 2,600 Climbing FlightAware ADS-B
Mon 06:33:22 AM 56.1050 37.6420 288° West 284 327 9,300 2,400 Climbing FlightAware ADS-B
Mon 06:33:52 AM 56.1170 37.5720 287° West 292 336 10,400 1,457 Climbing FlightAware ADS-B
Mon 06:34:32 AM 56.1340 37.4730 287° West 333 383 11,000 880 Climbing FlightAware ADS-B
Mon 06:35:07 AM 56.1510 37.3750 287° West 366 421 11,500 1,440 Climbing FlightAware ADS-B
Mon 06:35:47 AM 56.1710 37.2560 287° West 380 437 12,800 2,000 Climbing FlightAware ADS-B
Mon 06:36:22 AM 56.1880 37.1480 286° West 386 444 14,000 2,057 Climbing FlightAware ADS-B
Mon 06:36:57 AM 56.2050 37.0400 286° West 395 455 15,200 1,886 Climbing FlightAware ADS-B
Mon 06:37:32 AM 56.2230 36.9280 286° West 405 466 16,200 1,800 Climbing FlightAware ADS-B
Mon 06:38:07 AM 56.2410 36.8130 286° West 413 475 17,300 1,886 Climbing FlightAware ADS-B
Mon 06:38:42 AM 56.2580 36.7010 285° West 416 479 18,400 1,714 Climbing FlightAware ADS-B
Mon 06:39:17 AM 56.2770 36.5790 286° West 426 490 19,300 1,457 Climbing FlightAware ADS-B
Mon 06:39:52 AM 56.2950 36.4600 285° West 436 502 20,100 1,457 Climbing FlightAware ADS-B
Mon 06:40:27 AM 56.3140 36.3360 285° West 444 511 21,000 1,457 Climbing FlightAware ADS-B
Mon 06:41:02 AM 56.3330 36.2100 285° West 450 518 21,800 1,500 Climbing FlightAware ADS-B
Mon 06:41:47 AM 56.3580 36.0450 285° West 455 524 23,000 1,600 Climbing FlightAware ADS-B
Mon 06:42:17 AM 56.3740 35.9350 285° West 456 525 23,800 1,477 Climbing FlightAware ADS-B
Mon 06:42:52 AM 56.3930 35.8060 285° West 460 529 24,600 1,286 Climbing FlightAware ADS-B
Mon 06:43:27 AM 56.4120 35.6750 285° West 465 535 25,300 1,200 Climbing FlightAware ADS-B
Mon 06:44:02 AM 56.4320 35.5440 285° West 469 540 26,000 1,114 Climbing FlightAware ADS-B
Mon 06:44:37 AM 56.4520 35.4120 285° West 473 544 26,600 1,029 Climbing FlightAware ADS-B
Mon 06:45:12 AM 56.4850 35.2860 295° West 478 550 27,200 960 Climbing FlightAware ADS-B
Mon 06:45:52 AM 56.5360 35.1620 307° West 482 555 27,800 960 Climbing FlightAware ADS-B
Mon 06:46:27 AM 56.5970 35.0660 319° Northwest 484 557 28,400 923 Climbing FlightAware ADS-B
Mon 06:46:57 AM 56.6540 35.0050 330° Northwest 486 559 28,800 1,015 Climbing FlightAware ADS-B
Mon 06:47:32 AM 56.7290 34.9580 341° North 482 555 29,500 1,360 Climbing FlightAware ADS-B
Mon 06:48:12 AM 56.8160 34.9400 354° North 472 543 30,500 1,600 Climbing FlightAware ADS-B
Mon 06:48:32 AM 56.8600 34.9420 North 467 537 31,100 1,418 Climbing FlightAware ADS-B
Mon 06:49:07 AM 56.9340 34.9480 North 462 532 31,800 1,200 Climbing FlightAware ADS-B
Mon 06:49:47 AM 57.0190 34.9510 North 456 525 32,600 1,200 Climbing FlightAware ADS-B
Mon 06:50:22 AM 57.0920 34.9540 North 452 520 33,300 943 Climbing FlightAware ADS-B
Mon 06:50:57 AM 57.1640 34.9560 North 453 521 33,700 600 Climbing FlightAware ADS-B
Mon 06:51:32 AM 57.2380 34.9580 North 454 522 34,000 257 Climbing FlightAware ADS-B
Mon 06:52:07 AM 57.3120 34.9600 North 456 525 34,000  Level FlightAware ADS-B
Mon 06:52:42 AM 57.3840 34.9620 North 454 522 34,000  Level FlightAware ADS-B
Mon 06:53:17 AM 57.4580 34.9640 North 456 525 34,000  Level FlightAware ADS-B
Mon 06:53:52 AM 57.5320 34.9670 North 455 524 34,000  Level FlightAware ADS-B
Mon 06:54:12 AM 57.5740 34.9630 357° North 455 524 34,000  Level FlightAware ADS-B
Mon 06:54:47 AM 57.6470 34.9430 352° North 454 522 34,000  Level FlightAware ADS-B
Mon 06:55:22 AM 57.7170 34.9070 345° North 454 522 34,000  Level FlightAware ADS-B
Mon 06:56:02 AM 57.7940 34.8450 337° Northwest 456 525 34,000  Level FlightAware ADS-B
Mon 06:56:32 AM 57.8490 34.7860 330° Northwest 456 525 34,000  Level FlightAware ADS-B
Mon 06:57:07 AM 57.9090 34.7040 324° Northwest 457 526 34,000  Level FlightAware ADS-B
Mon 06:57:42 AM 57.9680 34.6210 323° Northwest 457 526 34,000  Level FlightAware ADS-B
Mon 06:58:22 AM 58.0280 34.5360 323° Northwest 456 525 34,000  Level FlightAware ADS-B
Mon 06:58:52 AM 58.0850 34.4560 323° Northwest 456 525 34,000  Level FlightAware ADS-B
Mon 06:59:27 AM 58.1450 34.3720 324° Northwest 455 524 34,000  Level FlightAware ADS-B
Mon 07:00:02 AM 58.2030 34.2870 322° Northwest 455 524 34,000  Level FlightAware ADS-B
Mon 07:00:37 AM 58.2560 34.2040 321° Northwest 454 522 34,000  Level FlightAware ADS-B
Mon 07:01:12 AM 58.3160 34.1120 321° Northwest 455 524 34,000  Level FlightAware ADS-B
Mon 07:01:47 AM 58.3710 34.0280 321° Northwest 456 525 34,000  Level FlightAware ADS-B
Mon 07:02:32 AM 58.4450 33.9140 321° Northwest 456 525 34,000  Level FlightAware ADS-B
Mon 07:03:05 AM 58.4950 33.8360 321° Northwest 456 525 34,000  Level FlightAware ADS-B
Mon 07:03:41 AM 58.5450 33.7580 321° Northwest 456 525 34,000  Level FlightAware ADS-B
Mon 07:04:17 AM 58.5960 33.6800 321° Northwest 456 525 34,000  Level FlightAware ADS-B
Mon 07:04:53 AM 58.6460 33.6020 321° Northwest 456 525 34,000  Level FlightAware ADS-B
Mon 07:05:29 AM 58.6960 33.5240 321° Northwest 456 525 34,000  Level FlightAware ADS-B
Mon 07:06:17 AM 58.7630 33.4190 321° Northwest 456 525 34,000  Level FlightAware ADS-B
Mon 07:06:54 AM 58.8140 33.3390 321° Northwest 456 525 34,000  Level FlightAware ADS-B
Mon 07:07:30 AM 58.8640 33.2600 321° Northwest 456 525 34,000  Level FlightAware ADS-B
Mon 07:07:49 AM 58.9110 33.0020 290° West 34,000  Level FlightAware ADS-B
Mon 07:08:34 AM 58.9380 32.8580 290° West 461 531 34,000  Level FlightAware ADS-B
Mon 07:09:10 AM 58.9600 32.7400 290° West 461 531 34,000  Level FlightAware ADS-B
Mon 07:09:46 AM 58.9830 32.6210 291° West 461 531 34,000  Level FlightAware ADS-B
Mon 07:10:22 AM 59.0050 32.5010 290° West 461 531 34,000  Level FlightAware ADS-B
Mon 07:10:58 AM 59.0270 32.3820 290° West 461 531 34,000  Level FlightAware ADS-B
Mon 07:11:34 AM 59.0500 32.2630 291° West 461 531 34,000  Level FlightAware ADS-B
Mon 07:12:12 AM 59.0730 32.1370 290° West 461 531 34,000  Level FlightAware ADS-B
Mon 07:12:44 AM 59.1200 31.8410 287° West 464 534 34,000  Level FlightAware ADS-B
Mon 07:13:19 AM 59.1430 31.7080 289° West 464 534 34,000  Level FlightAware ADS-B
Mon 07:13:59 AM 59.1720 31.5450 289° West 463 533 34,000  Level FlightAware ADS-B
Mon 07:14:29 AM 59.1920 31.4250 288° West 462 532 34,000  Level FlightAware ADS-B
Mon 07:15:04 AM 59.2150 31.2900 288° West 461 531 34,000  Level FlightAware ADS-B
Mon 07:15:44 AM 59.2420 31.1290 288° West 461 531 34,000  Level FlightAware ADS-B
Mon 07:16:24 AM 59.2690 30.9720 289° West 462 532 34,000  Level FlightAware ADS-B
Mon 07:16:59 AM 59.2910 30.8360 288° West 464 534 34,000  Level FlightAware ADS-B
Mon 07:17:42 AM 59.3200 30.6600 288° West 464 534 34,000  Level FlightAware ADS-B
Mon 07:18:12 AM 59.3390 30.5420 288° West 464 534 34,000  Level FlightAware ADS-B
Mon 07:18:52 AM 59.3650 30.3850 288° West 466 536 34,000  Level FlightAware ADS-B
Mon 07:19:28 AM 59.3890 30.2370 288° West 466 536 34,000  Level FlightAware ADS-B
Mon 07:20:03 AM 59.4110 30.0970 287° West 466 536 34,000  Level FlightAware ADS-B
Mon 07:20:36 AM 59.4320 29.9640 287° West 466 536 34,000  Level FlightAware ADS-B
Mon 07:21:10 AM 59.4540 29.8250 287° West 467 537 34,000  Level FlightAware ADS-B
Mon 07:21:45 AM 59.4750 29.6890 287° West 469 540 34,000  Level FlightAware ADS-B
Mon 07:22:18 AM 59.4960 29.5500 287° West 469 540 34,000  Level FlightAware ADS-B
Mon 07:22:56 AM 59.5200 29.3930 287° West 468 539 34,000  Level FlightAware ADS-B
Mon 07:23:31 AM 59.5410 29.2530 287° West 468 539 34,000  Level FlightAware ADS-B
Mon 07:24:08 AM 59.5630 29.1080 287° West 467 537 34,000  Level FlightAware ADS-B
Mon 07:24:43 AM 59.5860 28.9590 287° West 467 537 34,000  Level FlightAware ADS-B
Mon 07:25:16 AM 59.6050 28.8250 286° West 467 537 34,000  Level FlightAware ADS-B
Mon 07:25:51 AM 59.6260 28.6830 286° West 467 537 34,000  Level FlightAware ADS-B
Mon 07:26:28 AM 59.6490 28.5300 287° West 469 540 34,000  Level FlightAware ADS-B
Mon 07:27:04 AM 59.6700 28.3820 286° West 466 536 34,000  Level FlightAware ADS-B
Mon 07:27:34 AM 59.6880 28.2570 286° West 464 534 34,000  Level FlightAware ADS-B
Mon 07:28:11 AM 59.7100 28.1050 286° West 465 535 34,000  Level FlightAware ADS-B
Mon 07:28:48 AM 59.7300 27.9590 285° West 466 536 34,000  Level FlightAware ADS-B
Mon 07:29:23 AM 59.7510 27.8130 286° West 465 535 34,000  Level FlightAware ADS-B
Mon 07:29:55 AM 59.7690 27.6810 285° West 465 535 34,000  Level FlightAware ADS-B
Mon 07:30:31 AM 59.7890 27.5360 285° West 465 535 34,000  Level FlightAware ADS-B
Mon 07:31:07 AM 59.8090 27.3860 285° West 465 535 34,000  Level FlightAware ADS-B
Mon 07:31:44 AM 59.8300 27.2330 285° West 464 534 34,000  Level FlightAware ADS-B
Mon 07:32:14 AM 59.8470 27.1090 285° West 464 534 34,000  Level FlightAware ADS-B
Mon 07:32:51 AM 59.8670 26.9580 285° West 462 532 34,000  Level FlightAware ADS-B
Mon 07:33:28 AM 59.8870 26.8050 285° West 460 529 34,000  Level FlightAware ADS-B
Mon 07:33:58 AM 59.9030 26.6810 284° West 459 528 34,000  Level FlightAware ADS-B
Mon 07:34:35 AM 59.9220 26.5300 284° West 458 527 34,000  Level FlightAware ADS-B
Mon 07:35:12 AM 59.9450 26.3820 287° West 460 529 34,000  Level FlightAware ADS-B
Mon 07:35:43 AM 59.9710 26.2630 294° West 465 535 34,000  Level FlightAware ADS-B
Mon 07:36:23 AM 60.0140 26.1100 299° West 471 542 34,000  Level FlightAware ADS-B
Mon 07:36:56 AM 60.0440 25.9890 296° West 466 536 34,000  Level FlightAware ADS-B
Mon 07:37:31 AM 60.0780 25.8490 296° West 465 535 34,000  Level FlightAware ADS-B
Mon 07:38:07 AM 60.1120 25.7100 296° West 463 533 34,000  Level FlightAware ADS-B
Mon 07:38:44 AM 60.1460 25.5680 296° West 465 535 34,000  Level FlightAware ADS-B
Mon 07:39:17 AM 60.1760 25.4430 296° West 466 536 34,000  Level FlightAware ADS-B
Mon 07:39:52 AM 60.2090 25.3050 296° West 466 536 34,000  Level FlightAware ADS-B
Mon 07:40:24 AM 60.2400 25.1780 296° West 466 536 34,000  Level FlightAware ADS-B
Mon 07:41:03 AM 60.2760 25.0260 296° West 467 537 34,000  Level FlightAware ADS-B
Mon 07:41:37 AM 60.3090 24.8910 296° West 468 539 34,000  Level FlightAware ADS-B
Mon 07:42:10 AM 60.3390 24.7630 295° West 468 539 34,000  Level FlightAware ADS-B
Mon 07:42:47 AM 60.3720 24.6190 295° West 467 537 34,000  Level FlightAware ADS-B
Mon 07:43:23 AM 60.4060 24.4750 296° West 467 537 34,000  Level FlightAware ADS-B
Mon 07:43:54 AM 60.4340 24.3530 295° West 465 535 34,000  Level FlightAware ADS-B
Mon 07:44:33 AM 60.4700 24.2020 296° West 466 536 34,000  Level FlightAware ADS-B
Mon 07:45:06 AM 60.5040 24.0750 299° West 466 536 34,000  Level FlightAware ADS-B
Mon 07:45:41 AM 60.5380 23.9460 298° West 467 537 34,000  Level FlightAware ADS-B
Mon 07:46:18 AM 60.5780 23.7970 299° West 467 537 34,000  Level FlightAware ADS-B
Mon 07:46:52 AM 60.6120 23.6680 298° West 467 537 34,000  Level FlightAware ADS-B
Mon 07:47:28 AM 60.6480 23.5280 298° West 466 536 34,000  Level FlightAware ADS-B
Mon 07:48:00 AM 60.6780 23.4100 297° West 465 535 34,000  Level FlightAware ADS-B
Mon 07:48:45 AM 60.7240 23.2330 298° West 462 532 34,000  Level FlightAware ADS-B
Mon 07:49:18 AM 60.7570 23.1040 298° West 461 531 34,000  Level FlightAware ADS-B
Mon 07:49:52 AM 60.7880 22.9820 298° West 461 531 34,000  Level FlightAware ADS-B
Mon 07:50:17 AM 60.8140 22.8780 297° West 462 532 34,000  Level FlightAware ADS-B
Mon 07:50:57 AM 60.8530 22.7240 298° West 462 532 34,000  Level FlightAware ADS-B
Mon 07:51:32 AM 60.8860 22.5900 297° West 462 532 34,000  Level FlightAware ADS-B
Mon 07:52:14 AM 60.9240 22.4370 297° West 463 533 34,000  Level FlightAware ADS-B
Mon 07:52:49 AM 60.9590 22.2990 298° West 466 536 34,000  Level FlightAware ADS-B
Mon 07:53:24 AM 61.0030 22.1530 302° West 467 537 34,000  Level FlightAware ADS-B
Mon 07:53:58 AM 61.0440 22.0250 304° West 466 536 34,000  Level FlightAware ADS-B
Mon 07:54:33 AM 61.0850 21.8910 302° West 465 535 34,000  Level FlightAware ADS-B
Mon 07:55:08 AM 61.1240 21.7610 302° West 465 535 34,000  Level FlightAware ADS-B
Mon 07:55:43 AM 61.1630 21.6310 302° West 466 536 34,000  Level FlightAware ADS-B
Mon 07:56:18 AM 61.2030 21.4980 302° West 467 537 34,000  Level FlightAware ADS-B
Mon 07:56:51 AM 61.2400 21.3740 302° West 469 540 34,000  Level FlightAware ADS-B
Mon 07:57:28 AM 61.2820 21.2310 301° West 469 540 34,000  Level FlightAware ADS-B
Mon 07:58:05 AM 61.3220 21.0960 302° West 469 540 34,000  Level FlightAware ADS-B
Mon 07:58:40 AM 61.3620 20.9570 301° West 468 539 34,000  Level FlightAware ADS-B
Mon 07:59:13 AM 61.4000 20.8280 302° West 468 539 34,000  Level FlightAware ADS-B
Mon 07:59:45 AM 61.4360 20.7030 301° West 467 537 34,000  Level FlightAware ADS-B
Mon 08:00:26 AM 61.4810 20.5460 301° West 465 535 34,000  Level FlightAware ADS-B
Mon 08:00:58 AM 61.5160 20.4220 301° West 464 534 34,000  Level FlightAware ADS-B
Mon 08:01:31 AM 61.5510 20.2990 301° West 464 534 34,000  Level FlightAware ADS-B
Mon 08:02:08 AM 61.5920 20.1520 300° West 466 536 34,000  Level FlightAware ADS-B
Mon 08:02:42 AM 61.6290 20.0220 301° West 467 537 34,000  Level FlightAware ADS-B
Mon 08:03:19 AM 61.6690 19.8790 301° West 466 536 34,000  Level FlightAware ADS-B
Mon 08:03:52 AM 61.7050 19.7490 300° West 466 536 34,000  Level FlightAware ADS-B
Mon 08:04:28 AM 61.7450 19.6050 300° West 466 536 34,000  Level FlightAware ADS-B
Mon 08:05:02 AM 61.7780 19.4820 300° West 465 535 34,000  Level FlightAware ADS-B
Mon 08:05:39 AM 61.8160 19.3260 297° West 453 521 34,000  Level FlightAware ADS-B
Mon 08:06:13 AM 61.8480 19.1930 297° West 453 521 34,000  Level FlightAware ADS-B
Mon 08:06:42 AM 61.8760 19.0790 298° West 452 520 34,000  Level FlightAware ADS-B
Mon 08:07:23 AM 61.9140 18.9200 297° West 446 513 34,000  Level FlightAware ADS-B
Mon 08:07:54 AM 61.9430 18.8010 297° West 445 512 34,000  Level FlightAware ADS-B
Mon 08:08:33 AM 61.9800 18.6450 297° West 444 511 34,000  Level FlightAware ADS-B
Mon 08:09:09 AM 62.0130 18.5060 297° West 443 510 34,000  Level FlightAware ADS-B
Mon 08:09:43 AM 62.0450 18.3710 297° West 442 509 34,000  Level FlightAware ADS-B
Mon 08:10:19 AM 62.0780 18.2330 297° West 442 509 34,000  Level FlightAware ADS-B
Mon 08:10:53 AM 62.1090 18.0990 296° West 442 509 34,000  Level FlightAware ADS-B
Mon 08:11:29 AM 62.1420 17.9570 296° West 446 513 34,000  Level FlightAware ADS-B
Mon 08:12:16 AM 62.1860 17.7650 296° West 445 512 34,000  Level FlightAware ADS-B
Mon 08:12:54 AM 62.2200 17.6170 296° West 446 513 34,000  Level FlightAware ADS-B
Mon 08:13:28 AM 62.2510 17.4810 296° West 446 513 34,000  Level FlightAware ADS-B
Mon 08:14:04 AM 62.2830 17.3400 296° West 445 512 34,000  Level FlightAware ADS-B
Mon 08:14:38 AM 62.3130 17.2080 296° West 444 511 34,000  Level FlightAware ADS-B
Mon 08:15:09 AM 62.3400 17.0860 296° West 445 512 34,000  Level FlightAware ADS-B
Mon 08:15:48 AM 62.3740 16.9290 295° West 446 513 34,000  Level FlightAware ADS-B
Mon 08:16:19 AM 62.4010 16.8080 296° West 448 516 34,000  Level FlightAware ADS-B
Mon 08:16:58 AM 62.4360 16.6470 295° West 449 517 34,000  Level FlightAware ADS-B
Mon 08:17:29 AM 62.4630 16.5230 295° West 452 520 34,000  Level FlightAware ADS-B
Mon 08:18:08 AM 62.4980 16.3610 295° West 447 514 34,000  Level FlightAware ADS-B
Mon 08:18:44 AM 62.5280 16.2200 295° West 445 512 34,000  Level FlightAware ADS-B
Mon 08:19:13 AM 62.5540 16.0970 295° West 445 512 34,000  Level FlightAware ADS-B
Mon 08:19:49 AM 62.5850 15.9530 295° West 445 512 34,000  Level FlightAware ADS-B
Mon 08:20:29 AM 62.6180 15.7930 294° West 443 510 34,000  Level FlightAware ADS-B
Mon 08:21:04 AM 62.6480 15.6480 294° West 443 510 34,000  Level FlightAware ADS-B
Mon 08:21:38 AM 62.6760 15.5140 295° West 445 512 34,000  Level FlightAware ADS-B
Mon 08:22:14 AM 62.7080 15.3600 294° West 446 513 34,000  Level FlightAware ADS-B
Mon 08:22:43 AM 62.7330 15.2330 293° West 447 514 34,000  Level FlightAware ADS-B
Mon 08:23:29 AM 62.7710 15.0490 294° West 450 518 34,000  Level FlightAware ADS-B
Mon 08:24:03 AM 62.8010 14.8990 294° West 455 524 34,000  Level FlightAware ADS-B
Mon 08:24:39 AM 62.8290 14.7560 293° West 455 524 34,000  Level FlightAware ADS-B
Mon 08:25:13 AM 62.8590 14.6060 294° West 455 524 34,000  Level FlightAware ADS-B
Mon 08:25:49 AM 62.8880 14.4610 294° West 454 522 34,000  Level FlightAware ADS-B
Mon 08:26:23 AM 62.9160 14.3130 293° West 455 524 34,000  Level FlightAware ADS-B
Mon 08:26:58 AM 62.9450 14.1640 293° West 453 521 34,000  Level FlightAware ADS-B
Mon 08:27:33 AM 62.9730 14.0170 293° West 453 521 34,000  Level FlightAware ADS-B
Mon 08:28:08 AM 63.0000 13.8750 293° West 445 512 34,000  Level FlightAware ADS-B
Mon 08:28:38 AM 63.0240 13.7530 293° West 444 511 34,000  Level FlightAware ADS-B
Mon 08:29:13 AM 63.0520 13.6030 292° West 444 511 34,000  Level FlightAware ADS-B
Mon 08:29:49 AM 63.0800 13.4520 292° West 444 511 34,000  Level FlightAware ADS-B
Mon 08:30:20 AM 63.1060 13.3140 293° West 446 513 34,000  Level FlightAware ADS-B
Mon 08:30:56 AM 63.1330 13.1640 292° West 444 511 34,000  Level FlightAware ADS-B
Mon 08:31:32 AM 63.1610 13.0090 292° West 443 510 34,000  Level FlightAware ADS-B
Mon 08:32:06 AM 63.1880 12.8640 292° West 443 510 34,000  Level FlightAware ADS-B
Mon 08:32:44 AM 63.2160 12.7080 292° West 444 511 34,000  Level FlightAware ADS-B
Mon 08:33:16 AM 63.2400 12.5730 292° West 447 514 34,000  Level FlightAware ADS-B
Mon 08:33:52 AM 63.2660 12.4220 291° West 449 517 34,000  Level FlightAware ADS-B
Mon 08:34:28 AM 63.2940 12.2650 292° West 451 519 34,000  Level FlightAware ADS-B
Mon 08:35:04 AM 63.3210 12.1100 291° West 451 519 34,000  Level FlightAware ADS-B
Mon 08:35:36 AM 63.3400 11.9670 287° West 444 511 34,000  Level FlightAware ADS-B
Mon 08:36:06 AM 63.3540 11.8350 283° West 442 509 34,000  Level FlightAware ADS-B
Mon 08:36:48 AM 63.3750 11.6510 284° West 444 511 34,000  Level FlightAware ADS-B
Mon 08:37:24 AM 63.3920 11.4890 283° West 445 512 34,000  Level FlightAware ADS-B
Mon 08:37:56 AM 63.4070 11.3440 283° West 449 517 34,000  Level FlightAware ADS-B
Mon 08:38:32 AM 63.4240 11.1830 283° West 449 517 34,000  Level FlightAware ADS-B
Mon 08:39:08 AM 63.4400 11.0220 283° West 444 511 34,000  Level FlightAware ADS-B
Mon 08:39:44 AM 63.4560 10.8660 283° West 442 509 34,000  Level FlightAware ADS-B
Mon 08:40:12 AM 63.4690 10.7360 283° West 442 509 34,000  Level FlightAware ADS-B
Mon 08:40:54 AM 63.4880 10.5490 283° West 445 512 34,000  Level FlightAware ADS-B
Mon 08:41:30 AM 63.5040 10.3860 282° West 448 516 34,000  Level FlightAware ADS-B
Mon 08:42:04 AM 63.5180 10.2380 282° West 451 519 34,000  Level FlightAware ADS-B
Mon 08:42:34 AM 63.5310 10.1020 282° West 451 519 34,000  Level FlightAware ADS-B
Mon 08:43:13 AM 63.5480 9.9200 282° West 452 520 34,000  Level FlightAware ADS-B
Mon 08:43:45 AM 63.5620 9.7730 282° West 454 522 34,000  Level FlightAware ADS-B
Mon 08:44:21 AM 63.5770 9.6040 281° West 451 519 34,000  Level FlightAware ADS-B
Mon 08:44:54 AM 63.5910 9.4560 282° West 449 517 34,000  Level FlightAware ADS-B
Mon 08:45:30 AM 63.6060 9.2900 282° West 444 511 34,000  Level FlightAware ADS-B
Mon 08:46:07 AM 63.6200 9.1250 281° West 442 509 34,000  Level FlightAware ADS-B
Mon 08:46:42 AM 63.6340 8.9660 281° West 437 503 34,000  Level FlightAware ADS-B
Mon 08:47:15 AM 63.6460 8.8250 281° West 429 494 34,000  Level FlightAware ADS-B
Mon 08:47:47 AM 63.6580 8.6910 281° West 428 493 34,000  Level FlightAware ADS-B
Mon 08:48:23 AM 63.6710 8.5310 280° West 426 490 34,000  Level FlightAware ADS-B
Mon 08:49:02 AM 63.6850 8.3580 280° West 423 487 34,000  Level FlightAware ADS-B
Mon 08:49:39 AM 63.6980 8.2000 281° West 421 484 34,000  Level FlightAware ADS-B
Mon 08:50:14 AM 63.7110 8.0430 281° West 420 483 34,000  Level FlightAware ADS-B
Mon 08:50:47 AM 63.7210 7.9070 279° West 420 483 34,000  Level FlightAware ADS-B
Mon 08:51:19 AM 63.7330 7.7650 281° West 421 484 34,000  Level FlightAware ADS-B
Mon 08:51:57 AM 63.7450 7.6040 280° West 420 483 34,000  Level FlightAware ADS-B
Mon 08:52:32 AM 63.7570 7.4500 280° West 418 481 34,000  Level FlightAware ADS-B
Mon 08:53:08 AM 63.7680 7.2930 279° West 418 481 34,000  Level FlightAware ADS-B
Mon 08:53:43 AM 63.7790 7.1440 280° West 418 481 34,000 174 Level FlightAware ADS-B
Mon 08:54:17 AM 63.7900 7.0010 280° West 423 487 34,200 600 Climbing FlightAware ADS-B
Mon 08:54:53 AM 63.8010 6.8420 279° West 425 489 34,700 493 Climbing FlightAware ADS-B
Mon 08:55:30 AM 63.8120 6.6770 279° West 435 501 34,800 411 Climbing FlightAware ADS-B
Mon 08:56:06 AM 63.8240 6.5100 279° West 438 504 35,200 609 Climbing FlightAware ADS-B
Mon 08:56:39 AM 63.8340 6.3680 279° West 440 506 35,500 646 Climbing FlightAware ADS-B
Mon 08:57:11 AM 63.8440 6.2180 279° West 441 507 35,900 441 Climbing FlightAware ADS-B
Mon 08:57:47 AM 63.8540 6.0580 278° West 444 511 36,000 83 Climbing FlightAware ADS-B
Mon 08:58:23 AM 63.8650 5.8880 278° West 443 510 36,000  Level FlightAware ADS-B
Mon 08:59:00 AM 63.8760 5.7190 278° West 444 511 36,000  Level FlightAware ADS-B
Mon 08:59:33 AM 63.8850 5.5720 278° West 439 505 36,000  Level FlightAware ADS-B
Mon 09:00:27 AM 63.8970 5.3560 277° West 439 505 36,000  Level FlightAware ADS-B
Mon 09:01:03 AM 63.9030 5.2160 276° West 439 505 36,000  Level FlightAware ADS-B
Mon 09:01:29 AM 63.9160 5.0580 281° West 516 594 36,000  Level FlightAware ADS-B
Mon 09:04:00 AM 63.9561 4.4153 278° West  Level Estimated
Mon 09:05:00 AM 63.9712 4.1595 278° West  Level Estimated
Mon 09:06:00 AM 63.9858 3.9034 278° West  Level Estimated
Mon 09:07:00 AM 64.0001 3.6470 277° West  Level Estimated
Mon 09:08:00 AM 64.0138 3.3903 277° West  Level Estimated
Mon 09:09:00 AM 64.0272 3.1334 277° West  Level Estimated
Mon 09:10:00 AM 64.0400 2.8763 277° West  Level Estimated
Mon 09:11:00 AM 64.0524 2.6189 276° West  Level Estimated
Mon 09:12:00 AM 64.0644 2.3613 276° West  Level Estimated
Mon 09:13:00 AM 64.0759 2.1035 276° West  Level Estimated
Mon 09:14:00 AM 64.0869 1.8454 276° West  Level Estimated
Mon 09:15:00 AM 64.0975 1.5872 275° West  Level Estimated
Mon 09:16:00 AM 64.1076 1.3288 275° West  Level Estimated
Mon 09:17:00 AM 64.1173 1.0702 275° West  Level Estimated
Mon 09:18:00 AM 64.1265 0.8114 275° West  Level Estimated
Mon 09:19:00 AM 64.1352 0.5524 275° West  Level Estimated
Mon 09:20:00 AM 64.1435 0.2933 274° West  Level Estimated
Mon 09:20:57 AM 64.1260 -0.3200 274° West 435 501 36,000  Level FlightAware ADS-B
Mon 09:21:00 AM 64.1514 0.0341 274° West  Level Estimated
Mon 09:21:30 AM 64.1290 -0.4690 273° West 435 501 36,000  Level FlightAware ADS-B
Mon 09:22:07 AM 64.1320 -0.6400 272° West 435 501 36,000  Level FlightAware ADS-B
Mon 09:22:41 AM 64.1350 -0.7950 273° West 434 499 36,000  Level FlightAware ADS-B
Mon 09:23:15 AM 64.1370 -0.9520 272° West 434 499 36,000  Level FlightAware ADS-B
Mon 09:23:52 AM 64.1400 -1.1190 272° West 436 502 36,000  Level FlightAware ADS-B
Mon 09:24:25 AM 64.1420 -1.2720 272° West 438 504 36,000  Level FlightAware ADS-B
Mon 09:24:59 AM 64.1440 -1.4240 272° West 439 505 36,000  Level FlightAware ADS-B
Mon 09:25:27 AM 64.1460 -1.5610 272° West 440 506 36,000  Level FlightAware ADS-B
Mon 09:26:28 AM 64.1480 -1.8260 271° West 439 505 36,000  Level FlightAware ADS-B
Mon 09:27:16 AM 64.1500 -2.0370 271° West 438 504 36,000  Level FlightAware ADS-B
Mon 09:27:52 AM 64.1510 -2.1800 271° West 438 504 36,000  Level FlightAware ADS-B
Mon 09:28:26 AM 64.1520 -2.3140 271° West 438 504 36,000  Level FlightAware ADS-B
Mon 09:29:00 AM 64.1530 -2.4480 271° West 438 504 36,000  Level FlightAware ADS-B
Mon 09:29:36 AM 64.1540 -2.5900 271° West 438 504 36,000  Level FlightAware ADS-B
Mon 09:30:15 AM 64.1560 -2.7440 272° West 438 504 36,000  Level FlightAware ADS-B
Mon 09:30:49 AM 64.1560 -3.0460 270° West 433 498 36,000  Level FlightAware ADS-B
Mon 09:31:40 AM 64.1560 -3.2550 270° West 432 497 36,000  Level FlightAware ADS-B
Mon 09:32:11 AM 64.1560 -3.4130 270° West 433 498 36,000  Level FlightAware ADS-B
Mon 09:32:57 AM 64.1550 -3.6300 269° West 434 499 36,000  Level FlightAware ADS-B
Mon 09:33:33 AM 64.1550 -3.7920 270° West 433 498 36,000  Level FlightAware ADS-B
Mon 09:34:07 AM 64.1540 -3.9500 269° West 433 498 36,000  Level FlightAware ADS-B
Mon 09:34:41 AM 64.1530 -4.1030 269° West 432 497 36,000  Level FlightAware ADS-B
Mon 09:35:13 AM 64.1520 -4.2510 269° West 431 496 36,000  Level FlightAware ADS-B
Mon 09:35:54 AM 64.1510 -4.4320 269° West 431 496 36,000  Level FlightAware ADS-B
Mon 09:36:25 AM 64.1500 -4.5750 269° West 431 496 36,000  Level FlightAware ADS-B
Mon 09:37:01 AM 64.1480 -4.7410 268° West 431 496 36,000  Level FlightAware ADS-B
Mon 09:37:37 AM 64.1470 -4.9050 269° West 432 497 36,000  Level FlightAware ADS-B
Mon 09:38:13 AM 64.1450 -5.0680 268° West 432 497 36,000  Level FlightAware ADS-B
Mon 09:38:47 AM 64.1430 -5.2230 268° West 432 497 36,000  Level FlightAware ADS-B
Mon 09:39:21 AM 64.1410 -5.3780 268° West 432 497 36,000  Level FlightAware ADS-B
Mon 09:39:57 AM 64.1380 -5.5460 268° West 432 497 36,000  Level FlightAware ADS-B
Mon 09:40:32 AM 64.1360 -5.7010 268° West 433 498 36,000  Level FlightAware ADS-B
Mon 09:41:09 AM 64.1330 -5.8740 268° West 433 498 36,000  Level FlightAware ADS-B
Mon 09:41:40 AM 64.1300 -6.0070 267° West 432 497 36,000  Level FlightAware ADS-B
Mon 09:42:17 AM 64.1270 -6.1770 268° West 431 496 36,000  Level FlightAware ADS-B
Mon 09:42:55 AM 64.1230 -6.3360 267° West 431 496 36,000  Level FlightAware ADS-B
Mon 09:43:31 AM 64.1200 -6.5170 268° West 432 497 36,000  Level FlightAware ADS-B
Mon 09:44:10 AM 64.1160 -6.6920 267° West 431 496 36,000  Level FlightAware ADS-B
Mon 09:44:43 AM 64.1120 -6.8450 267° West 431 496 36,000  Level FlightAware ADS-B
Mon 09:45:19 AM 64.1080 -7.0100 267° West 430 495 36,000  Level FlightAware ADS-B
Mon 09:45:51 AM 64.1040 -7.1540 266° West 430 495 36,000  Level FlightAware ADS-B
Mon 09:46:29 AM 64.1000 -7.3160 267° West 431 496 36,000  Level FlightAware ADS-B
Mon 09:47:19 AM 64.0930 -7.5310 266° West 431 496 36,000  Level FlightAware ADS-B
Mon 09:47:55 AM 64.0890 -7.6700 266° West 431 496 36,000  Level FlightAware ADS-B
Mon 09:48:31 AM 64.0850 -7.8090 266° West 431 496 36,000  Level FlightAware ADS-B
Mon 09:49:07 AM 64.0810 -7.9490 266° West 431 496 36,000  Level FlightAware ADS-B
Mon 09:49:43 AM 64.0760 -8.0880 265° West 431 496 36,000  Level FlightAware ADS-B
Mon 09:50:19 AM 64.0720 -8.2270 266° West 431 496 36,000  Level FlightAware ADS-B
Mon 09:50:55 AM 64.0680 -8.3660 266° West 431 496 36,000  Level FlightAware ADS-B
Mon 09:51:32 AM 64.0630 -8.5090 265° West 431 496 36,000  Level FlightAware ADS-B
Mon 09:52:08 AM 64.0590 -8.6490 266° West 431 496 36,000  Level FlightAware ADS-B
Mon 09:52:46 AM 64.0540 -8.7950 266° West 431 496 36,000  Level FlightAware ADS-B
Mon 09:53:22 AM 64.0500 -8.9350 266° West 431 496 36,000  Level FlightAware ADS-B
Mon 09:53:58 AM 64.0460 -9.0740 266° West 431 496 36,000  Level FlightAware ADS-B
Mon 09:54:34 AM 64.0420 -9.2130 266° West 431 496 36,000  Level FlightAware ADS-B
Mon 09:55:10 AM 64.0370 -9.3520 265° West 431 496 36,000  Level FlightAware ADS-B
Mon 09:55:47 AM 64.0330 -9.4950 266° West 431 496 36,000  Level FlightAware ADS-B
Mon 09:56:24 AM 64.0290 -9.6370 266° West 431 496 36,000  Level FlightAware ADS-B
Mon 09:56:59 AM 63.9890 -10.1880 261° West 433 498 36,000  Level FlightAware ADS-B
Mon 09:57:36 AM 63.9780 -10.3500 261° West 435 501 36,000  Level FlightAware ADS-B
Mon 09:58:07 AM 63.9680 -10.4940 261° West 434 499 36,000  Level FlightAware ADS-B
Mon 09:58:44 AM 63.9570 -10.6630 262° West 436 502 36,000  Level FlightAware ADS-B
Mon 09:59:19 AM 63.9470 -10.8170 262° West 436 502 36,000  Level FlightAware ADS-B
Mon 09:59:55 AM 63.9350 -10.9810 261° West 436 502 36,000  Level FlightAware ADS-B
Mon 10:00:27 AM 63.9250 -11.1260 261° West 435 501 36,000  Level FlightAware ADS-B
Mon 10:01:03 AM 63.9140 -11.2870 261° West 435 501 36,000  Level FlightAware ADS-B
Mon 10:01:34 AM 63.9040 -11.4290 261° West 437 503 36,000  Level FlightAware ADS-B
Mon 10:02:14 AM 63.8900 -11.6110 260° West 438 504 36,000  Level FlightAware ADS-B
Mon 10:02:51 AM 63.8780 -11.7760 261° West 438 504 36,000  Level FlightAware ADS-B
Mon 10:03:25 AM 63.8670 -11.9230 260° West 438 504 36,000  Level FlightAware ADS-B
Mon 10:03:58 AM 63.8550 -12.0800 260° West 438 504 36,000  Level FlightAware ADS-B
Mon 10:04:35 AM 63.8420 -12.2440 260° West 437 503 36,000  Level FlightAware ADS-B
Mon 10:05:07 AM 63.8300 -12.3890 259° West 438 504 36,000  Level FlightAware ADS-B
Mon 10:05:43 AM 63.8170 -12.5510 260° West 439 505 36,000  Level FlightAware ADS-B
Mon 10:06:19 AM 63.8040 -12.7130 260° West 438 504 36,000  Level FlightAware ADS-B
Mon 10:06:55 AM 63.7910 -12.8740 260° West 436 502 36,000  Level FlightAware ADS-B
Mon 10:07:31 AM 63.7770 -13.0370 259° West 436 502 36,000  Level FlightAware ADS-B
Mon 10:08:03 AM 63.7650 -13.1790 259° West 437 503 36,000  Level FlightAware ADS-B
Mon 10:08:36 AM 63.7520 -13.3280 259° West 438 504 36,000  Level FlightAware ADS-B
Mon 10:09:17 AM 63.7370 -13.5040 259° West 438 504 36,000  Level FlightAware ADS-B
Mon 10:09:49 AM 63.7240 -13.6470 258° West 437 503 36,000  Level FlightAware ADS-B
Mon 10:10:21 AM 63.7110 -13.7960 259° West 437 503 36,000  Level FlightAware ADS-B
Mon 10:10:59 AM 63.6950 -13.9660 258° West 438 504 36,000  Level FlightAware ADS-B
Mon 10:11:35 AM 63.6800 -14.1250 258° West 438 504 36,000  Level FlightAware ADS-B
Mon 10:12:10 AM 63.6660 -14.2820 259° West 439 505 36,000  Level FlightAware ADS-B
Mon 10:12:43 AM 63.6520 -14.4250 258° West 439 505 36,000  Level FlightAware ADS-B
Mon 10:13:19 AM 63.6360 -14.5900 258° West 438 504 36,000  Level FlightAware ADS-B
Mon 10:13:57 AM 63.6200 -14.7560 258° West 438 504 36,000  Level FlightAware ADS-B
Mon 10:14:27 AM 63.6070 -14.8880 258° West 438 504 36,000  Level FlightAware ADS-B
Mon 10:15:01 AM 63.5920 -15.0390 257° West 439 505 36,000  Level FlightAware ADS-B
Mon 10:15:41 AM 63.5750 -15.2110 258° West 441 507 36,000  Level FlightAware ADS-B
Mon 10:16:13 AM 63.5600 -15.3610 257° West 442 509 36,000  Level FlightAware ADS-B
Mon 10:16:51 AM 63.5420 -15.5310 257° West 443 510 36,000  Level FlightAware ADS-B
Mon 10:17:27 AM 63.5260 -15.6880 257° West 443 510 36,000  Level FlightAware ADS-B
Mon 10:17:57 AM 63.5120 -15.8240 257° West 443 510 36,000  Level FlightAware ADS-B
Mon 10:18:31 AM 63.4960 -15.9750 257° West 443 510 36,000  Level FlightAware ADS-B
Mon 10:19:11 AM 63.4770 -16.1520 257° West 442 509 36,000  Level FlightAware ADS-B
Mon 10:19:43 AM 63.4610 -16.2930 256° West 441 507 36,000  Level FlightAware ADS-B
Mon 10:20:16 AM 63.4450 -16.4430 257° West 440 506 36,000  Level FlightAware ADS-B
Mon 10:20:55 AM 63.4260 -16.6100 256° West 439 505 36,000  Level FlightAware ADS-B
Mon 10:21:31 AM 63.4080 -16.7670 256° West 438 504 36,000  Level FlightAware ADS-B
Mon 10:22:03 AM 63.3920 -16.9090 256° West 436 502 36,000  Level FlightAware ADS-B
Mon 10:22:40 AM 63.3740 -17.0700 256° West 435 501 36,000  Level FlightAware ADS-B
Mon 10:23:15 AM 63.3560 -17.2220 255° West 435 501 36,000  Level FlightAware ADS-B
Mon 10:23:48 AM 63.3400 -17.3610 256° West 436 502 36,000  Level FlightAware ADS-B
Mon 10:24:24 AM 63.3210 -17.5170 255° West 435 501 36,000  Level FlightAware ADS-B
Mon 10:24:59 AM 63.3030 -17.6670 255° West 433 498 36,000  Level FlightAware ADS-B
Mon 10:25:36 AM 63.2840 -17.8220 255° West 431 496 36,000  Level FlightAware ADS-B
Mon 10:26:08 AM 63.2670 -17.9620 255° West 432 497 36,000  Level FlightAware ADS-B
Mon 10:26:44 AM 63.2490 -18.1120 255° West 434 499 36,000  Level FlightAware ADS-B
Mon 10:27:18 AM 63.2300 -18.2640 255° West 434 499 36,000  Level FlightAware ADS-B
Mon 10:27:54 AM 63.2110 -18.4170 255° West 434 499 36,000  Level FlightAware ADS-B
Mon 10:28:26 AM 63.1930 -18.5530 254° West 434 499 36,000  Level FlightAware ADS-B
Mon 10:29:06 AM 63.1720 -18.7180 254° West 435 501 36,000  Level FlightAware ADS-B
Mon 10:29:38 AM 63.1550 -18.8490 254° West 437 503 36,000  Level FlightAware ADS-B
Mon 10:30:14 AM 63.1340 -19.0110 254° West 438 504 36,000  Level FlightAware ADS-B
Mon 10:30:50 AM 63.1140 -19.1650 254° West 438 504 36,000  Level FlightAware ADS-B
Mon 10:31:26 AM 63.0940 -19.3140 254° West 437 503 36,000  Level FlightAware ADS-B
Mon 10:31:58 AM 63.0740 -19.4600 253° West 437 503 36,000  Level FlightAware ADS-B
Mon 10:32:34 AM 63.0540 -19.6070 253° West 437 503 36,000  Level FlightAware ADS-B
Mon 10:33:10 AM 63.0330 -19.7610 253° West 436 502 36,000  Level FlightAware ADS-B
Mon 10:33:46 AM 63.0130 -19.9090 253° West 435 501 36,000  Level FlightAware ADS-B
Mon 10:34:19 AM 62.9970 -20.0580 257° West 434 499 36,000  Level FlightAware ADS-B
Mon 10:34:55 AM 62.9870 -20.2160 262° West 434 499 36,000  Level FlightAware ADS-B
Mon 10:35:29 AM 62.9770 -20.3630 262° West 433 498 36,000  Level FlightAware ADS-B
Mon 10:36:03 AM 62.9680 -20.5110 262° West 434 499 36,000  Level FlightAware ADS-B
Mon 10:36:39 AM 62.9570 -20.6700 261° West 435 501 36,000  Level FlightAware ADS-B
Mon 10:37:16 AM 62.9460 -20.8300 261° West 436 502 36,000  Level FlightAware ADS-B
Mon 10:37:52 AM 62.9360 -20.9900 262° West 436 502 36,000  Level FlightAware ADS-B
Mon 10:38:23 AM 62.9260 -21.1230 261° West 436 502 36,000  Level FlightAware ADS-B
Mon 10:39:00 AM 62.9150 -21.2840 262° West 436 502 36,000  Level FlightAware ADS-B
Mon 10:39:31 AM 62.9050 -21.4190 261° West 435 501 36,000  Level FlightAware ADS-B
Mon 10:40:05 AM 62.8940 -21.5670 261° West 435 501 36,000  Level FlightAware ADS-B
Mon 10:40:44 AM 62.8820 -21.7380 261° West 433 498 36,000  Level FlightAware ADS-B
Mon 10:41:20 AM 62.8700 -21.8920 260° West 433 498 36,000  Level FlightAware ADS-B
Mon 10:41:56 AM 62.8580 -22.0480 260° West 435 501 36,000  Level FlightAware ADS-B
Mon 10:42:30 AM 62.8470 -22.1970 261° West 436 502 36,000  Level FlightAware ADS-B
Mon 10:43:04 AM 62.8350 -22.3440 260° West 437 503 36,000  Level FlightAware ADS-B
Mon 10:43:37 AM 62.8240 -22.4820 260° West 437 503 36,000  Level FlightAware ADS-B
Mon 10:44:11 AM 62.8120 -22.6320 260° West 438 504 36,000  Level FlightAware ADS-B
Mon 10:44:46 AM 62.8000 -22.7820 260° West 437 503 36,000  Level FlightAware ADS-B
Mon 10:45:25 AM 62.7850 -22.9550 259° West 439 505 36,000  Level FlightAware ADS-B
Mon 10:45:52 AM 62.7760 -23.0690 260° West 439 505 36,000  Level FlightAware ADS-B
Mon 10:46:27 AM 62.7630 -23.2240 260° West 439 505 36,000  Level FlightAware ADS-B
Mon 10:47:04 AM 62.7490 -23.3860 259° West 439 505 36,000  Level FlightAware ADS-B
Mon 10:47:40 AM 62.7350 -23.5390 259° West 438 504 36,000  Level FlightAware ADS-B
Mon 10:48:11 AM 62.7230 -23.6740 259° West 438 504 36,000  Level FlightAware ADS-B
Mon 10:48:49 AM 62.7090 -23.8360 259° West 438 504 36,000  Level FlightAware ADS-B
Mon 10:49:25 AM 62.6950 -23.9890 259° West 437 503 36,000  Level FlightAware ADS-B
Mon 10:49:57 AM 62.6820 -24.1270 258° West 436 502 36,000  Level FlightAware ADS-B
Mon 10:50:34 AM 62.6670 -24.2910 259° West 435 501 36,000  Level FlightAware ADS-B
Mon 10:51:09 AM 62.6530 -24.4300 258° West 434 499 36,000  Level FlightAware ADS-B
Mon 10:51:52 AM 62.6350 -24.6220 259° West 433 498 36,000  Level FlightAware ADS-B
Mon 10:52:24 AM 62.6220 -24.7580 258° West 432 497 36,000  Level FlightAware ADS-B
Mon 10:53:00 AM 62.6070 -24.9110 258° West 431 496 36,000  Level FlightAware ADS-B
Mon 10:53:37 AM 62.5920 -25.0630 258° West 430 495 36,000  Level FlightAware ADS-B
Mon 10:54:09 AM 62.5780 -25.2000 258° West 430 495 36,000  Level FlightAware ADS-B
Mon 10:54:46 AM 62.5630 -25.3510 258° West 432 497 36,000  Level FlightAware ADS-B
Mon 10:55:23 AM 62.5480 -25.4900 257° West 432 497 36,000  Level FlightAware ADS-B
Mon 10:55:56 AM 62.5310 -25.6530 257° West 432 497 36,000  Level FlightAware ADS-B
Mon 10:56:31 AM 62.5170 -25.7920 258° West 432 497 36,000  Level FlightAware ADS-B
Mon 10:57:04 AM 62.5010 -25.9360 257° West 431 496 36,000  Level FlightAware ADS-B
Mon 10:57:41 AM 62.4850 -26.0920 258° West 432 497 36,000  Level FlightAware ADS-B
Mon 10:58:16 AM 62.4690 -26.2320 256° West 431 496 36,000  Level FlightAware ADS-B
Mon 10:58:48 AM 62.4540 -26.3710 257° West 430 495 36,000  Level FlightAware ADS-B
Mon 10:59:26 AM 62.4370 -26.5270 257° West 429 494 36,000  Level FlightAware ADS-B
Mon 11:00:05 AM 62.4190 -26.6900 257° West 427 491 36,000  Level FlightAware ADS-B
Mon 11:00:42 AM 62.4010 -26.8450 256° West 428 493 36,000  Level FlightAware ADS-B
Mon 11:01:19 AM 62.3840 -26.9910 256° West 428 493 36,000  Level FlightAware ADS-B
Mon 11:01:55 AM 62.3670 -27.1430 257° West 427 491 36,000  Level FlightAware ADS-B
Mon 11:02:27 AM 62.3510 -27.2760 256° West 427 491 36,000  Level FlightAware ADS-B
Mon 11:03:03 AM 62.3340 -27.4240 256° West 426 490 36,000  Level FlightAware ADS-B
Mon 11:03:37 AM 62.3170 -27.5640 255° West 425 489 36,000  Level FlightAware ADS-B
Mon 11:04:05 AM 62.3040 -27.6750 256° West 424 488 36,000  Level FlightAware ADS-B
Mon 11:04:41 AM 62.2860 -27.8230 255° West 424 488 36,000  Level FlightAware ADS-B
Mon 11:05:15 AM 62.2690 -27.9610 255° West 424 488 36,000  Level FlightAware ADS-B
Mon 11:05:51 AM 62.2510 -28.1050 255° West 425 489 36,000  Level FlightAware ADS-B
Mon 11:06:27 AM 62.2330 -28.2480 255° West 425 489 36,000  Level FlightAware ADS-B
Mon 11:06:58 AM 62.2170 -28.3710 254° West 425 489 36,000  Level FlightAware ADS-B
Mon 11:07:35 AM 62.1980 -28.5250 255° West 427 491 36,000  Level FlightAware ADS-B
Mon 11:08:17 AM 62.1750 -28.7010 254° West 426 490 36,000  Level FlightAware ADS-B
Mon 11:08:53 AM 62.1560 -28.8460 254° West 424 488 36,000  Level FlightAware ADS-B
Mon 11:09:35 AM 62.1340 -29.0160 255° West 426 490 36,000  Level FlightAware ADS-B
Mon 11:10:11 AM 62.1150 -29.1590 254° West 426 490 36,000  Level FlightAware ADS-B
Mon 11:10:52 AM 62.0930 -29.3240 254° West 426 490 36,000  Level FlightAware ADS-B
Mon 11:11:21 AM 62.0780 -29.4390 254° West 426 490 36,000  Level FlightAware ADS-B
Mon 11:12:01 AM 62.0550 -29.6020 253° West 425 489 36,000  Level FlightAware ADS-B
Mon 11:12:32 AM 62.0390 -29.7230 254° West 425 489 36,000  Level FlightAware ADS-B
Mon 11:13:11 AM 62.0170 -29.8800 253° West 425 489 36,000  Level FlightAware ADS-B
Mon 11:13:46 AM 61.9990 -30.0240 255° West 423 487 36,000  Level FlightAware ADS-B
Mon 11:14:19 AM 61.9890 -30.1420 260° West 422 486 36,000  Level FlightAware ADS-B
Mon 11:14:56 AM 61.9770 -30.2700 259° West 422 486 36,000  Level FlightAware ADS-B
Mon 11:15:30 AM 61.9660 -30.3880 259° West 422 486 36,000  Level FlightAware ADS-B
Mon 11:16:06 AM 61.9550 -30.5130 259° West 422 486 36,000  Level FlightAware ADS-B
Mon 11:16:42 AM 61.9430 -30.6370 258° West 422 486 36,000  Level FlightAware ADS-B
Mon 11:17:19 AM 61.9320 -30.7660 260° West 422 486 36,000  Level FlightAware ADS-B
Mon 11:17:44 AM 61.9240 -30.8520 259° West 422 486 36,000  Level FlightAware ADS-B
Mon 11:18:21 AM 61.9120 -30.9800 259° West 422 486 36,000  Level FlightAware ADS-B
Mon 11:18:59 AM 61.9000 -31.1120 259° West 422 486 36,000  Level FlightAware ADS-B
Mon 11:19:36 AM 61.8880 -31.2400 259° West 422 486 36,000  Level FlightAware ADS-B
Mon 11:20:13 AM 61.8770 -31.3670 260° West 422 486 36,000  Level FlightAware ADS-B
Mon 11:20:49 AM 61.8650 -31.4920 259° West 422 486 36,000  Level FlightAware ADS-B
Mon 11:21:24 AM 61.8540 -31.6130 259° West 422 486 36,000  Level FlightAware ADS-B
Mon 11:22:00 AM 61.8430 -31.7370 259° West 422 486 36,000  Level FlightAware ADS-B
Mon 11:22:37 AM 61.8310 -31.8650 259° West 422 486 36,000  Level FlightAware ADS-B
Mon 11:23:13 AM 61.8190 -31.9890 258° West 422 486 36,000  Level FlightAware ADS-B
Mon 11:23:49 AM 61.8080 -32.1130 259° West 422 486 36,000  Level FlightAware ADS-B
Mon 11:26:00 AM 61.7017 -32.5851 245° Southwest  Level Estimated
Mon 11:27:00 AM 61.6525 -32.8003 244° Southwest  Level Estimated
Mon 11:28:00 AM 61.6029 -33.0147 244° Southwest  Level Estimated
Mon 11:29:00 AM 61.5530 -33.2285 244° Southwest  Level Estimated
Mon 11:30:00 AM 61.5028 -33.4416 244° Southwest  Level Estimated
Mon 11:31:00 AM 61.4522 -33.6539 244° Southwest  Level Estimated
Mon 11:32:00 AM 61.4013 -33.8657 243° Southwest  Level Estimated
Mon 11:33:00 AM 61.3501 -34.0767 243° Southwest  Level Estimated
Mon 11:34:00 AM 61.2986 -34.2870 243° Southwest  Level Estimated
Mon 11:35:00 AM 61.2467 -34.4966 243° Southwest  Level Estimated
Mon 11:36:00 AM 61.1945 -34.7055 243° Southwest  Level Estimated
Mon 11:37:00 AM 61.1420 -34.9138 242° Southwest  Level Estimated
Mon 11:38:00 AM 61.0892 -35.1213 242° Southwest  Level Estimated
Mon 11:39:00 AM 61.0360 -35.3282 242° Southwest  Level Estimated
Mon 11:40:00 AM 60.9826 -35.5343 242° Southwest  Level Estimated
Mon 11:41:00 AM 60.9288 -35.7398 242° Southwest  Level Estimated
Mon 11:42:00 AM 60.8747 -35.9446 242° Southwest  Level Estimated
Mon 11:43:00 AM 60.8203 -36.1486 241° Southwest  Level Estimated
Mon 11:44:00 AM 60.7656 -36.3520 241° Southwest  Level Estimated
Mon 11:45:00 AM 60.7106 -36.5547 241° Southwest  Level Estimated
Mon 11:46:00 AM 60.6553 -36.7567 241° Southwest  Level Estimated
Mon 11:47:00 AM 60.5996 -36.9580 241° Southwest  Level Estimated
Mon 11:48:00 AM 60.5437 -37.1586 241° Southwest  Level Estimated
Mon 11:49:00 AM 60.4875 -37.3585 240° Southwest  Level Estimated
Mon 11:50:00 AM 60.4310 -37.5577 240° Southwest  Level Estimated
Mon 11:51:00 AM 60.3742 -37.7562 240° Southwest  Level Estimated
Mon 11:52:00 AM 60.3171 -37.9541 240° Southwest  Level Estimated
Mon 11:53:00 AM 60.2597 -38.1512 240° Southwest  Level Estimated
Mon 11:54:00 AM 60.2020 -38.3476 239° Southwest  Level Estimated
Mon 11:55:00 AM 60.1440 -38.5434 239° Southwest  Level Estimated
Mon 11:56:00 AM 60.0857 -38.7385 239° Southwest  Level Estimated
Mon 11:57:00 AM 60.0271 -38.9328 239° Southwest  Level Estimated
Mon 11:58:00 AM 59.9683 -39.1265 239° Southwest  Level Estimated
Mon 11:59:00 AM 59.9092 -39.3195 239° Southwest  Level Estimated
Mon 12:00:00 PM 59.8498 -39.5118 238° Southwest  Level Estimated
Mon 12:01:00 PM 59.7901 -39.7034 238° Southwest  Level Estimated
Mon 12:02:00 PM 59.7301 -39.8944 238° Southwest  Level Estimated
Mon 12:03:00 PM 59.6699 -40.0846 238° Southwest  Level Estimated
Mon 12:04:00 PM 59.6094 -40.2742 238° Southwest  Level Estimated
Mon 12:05:00 PM 59.5486 -40.4631 238° Southwest  Level Estimated
Mon 12:06:00 PM 59.4875 -40.6512 237° Southwest  Level Estimated
Mon 12:07:00 PM 59.4262 -40.8388 237° Southwest  Level Estimated
Mon 12:08:00 PM 59.3646 -41.0256 237° Southwest  Level Estimated
Mon 12:09:00 PM 59.3028 -41.2118 237° Southwest  Level Estimated
Mon 12:10:00 PM 59.2406 -41.3973 237° Southwest  Level Estimated
Mon 12:11:00 PM 59.1782 -41.5821 237° Southwest  Level Estimated
Mon 12:12:00 PM 59.1156 -41.7662 237° Southwest  Level Estimated
Mon 12:13:00 PM 59.0527 -41.9496 236° Southwest  Level Estimated
Mon 12:14:00 PM 58.9895 -42.1324 236° Southwest  Level Estimated
Mon 12:15:00 PM 58.9261 -42.3146 236° Southwest  Level Estimated
Mon 12:16:00 PM 58.8624 -42.4960 236° Southwest  Level Estimated
Mon 12:17:00 PM 58.7985 -42.6768 236° Southwest  Level Estimated
Mon 12:18:00 PM 58.7343 -42.8569 236° Southwest  Level Estimated
Mon 12:19:00 PM 58.6699 -43.0364 235° Southwest  Level Estimated
Mon 12:20:00 PM 58.6052 -43.2151 235° Southwest  Level Estimated
Mon 12:21:00 PM 58.5403 -43.3932 235° Southwest  Level Estimated
Mon 12:22:00 PM 58.4751 -43.5707 235° Southwest  Level Estimated
Mon 12:23:00 PM 58.4097 -43.7475 235° Southwest  Level Estimated
Mon 12:24:00 PM 58.3440 -43.9237 235° Southwest  Level Estimated
Mon 12:25:00 PM 58.2781 -44.0992 235° Southwest  Level Estimated
Mon 12:26:00 PM 58.2120 -44.2740 234° Southwest  Level Estimated
Mon 12:27:00 PM 58.1456 -44.4482 234° Southwest  Level Estimated
Mon 12:28:00 PM 58.0790 -44.6217 234° Southwest  Level Estimated
Mon 12:29:00 PM 58.0121 -44.7946 234° Southwest  Level Estimated
Mon 12:30:00 PM 57.9450 -44.9669 234° Southwest  Level Estimated
Mon 12:31:00 PM 57.8777 -45.1385 234° Southwest  Level Estimated
Mon 12:32:00 PM 57.8102 -45.3094 233° Southwest  Level Estimated
Mon 12:33:00 PM 57.7424 -45.4798 233° Southwest  Level Estimated
Mon 12:34:00 PM 57.6744 -45.6494 233° Southwest  Level Estimated
Mon 12:35:00 PM 57.6062 -45.8185 233° Southwest  Level Estimated
Mon 12:36:00 PM 57.5377 -45.9869 233° Southwest  Level Estimated
Mon 12:37:00 PM 57.4690 -46.1547 233° Southwest  Level Estimated
Mon 12:38:00 PM 57.4001 -46.3218 233° Southwest  Level Estimated
Mon 12:39:00 PM 57.3310 -46.4883 232° Southwest  Level Estimated
Mon 12:40:00 PM 57.2617 -46.6542 232° Southwest  Level Estimated
Mon 12:41:00 PM 57.1921 -46.8195 232° Southwest  Level Estimated
Mon 12:42:00 PM 57.1223 -46.9841 232° Southwest  Level Estimated
Mon 12:43:00 PM 57.0523 -47.1482 232° Southwest  Level Estimated
Mon 12:44:00 PM 56.9822 -47.3116 232° Southwest  Level Estimated
Mon 12:45:00 PM 56.9117 -47.4744 232° Southwest  Level Estimated
Mon 12:46:00 PM 56.8411 -47.6366 232° Southwest  Level Estimated
Mon 12:47:00 PM 56.7703 -47.7981 231° Southwest  Level Estimated
Mon 12:48:00 PM 56.6992 -47.9591 231° Southwest  Level Estimated
Mon 12:49:00 PM 56.6280 -48.1194 231° Southwest  Level Estimated
Mon 12:50:00 PM 56.5565 -48.2792 231° Southwest  Level Estimated
Mon 12:51:00 PM 56.4849 -48.4383 231° Southwest  Level Estimated
Mon 12:52:00 PM 56.4130 -48.5969 231° Southwest  Level Estimated
Mon 12:53:00 PM 56.3410 -48.7548 231° Southwest  Level Estimated
Mon 12:54:00 PM 56.2687 -48.9122 230° Southwest  Level Estimated
Mon 12:55:00 PM 56.1962 -49.0689 230° Southwest  Level Estimated
Mon 12:56:00 PM 56.1236 -49.2251 230° Southwest  Level Estimated
Mon 12:57:00 PM 56.0507 -49.3806 230° Southwest  Level Estimated
Mon 12:58:00 PM 55.9777 -49.5356 230° Southwest  Level Estimated
Mon 12:59:00 PM 55.9044 -49.6900 230° Southwest  Level Estimated
Mon 01:00:00 PM 55.8310 -49.8438 230° Southwest  Level Estimated
Mon 01:01:00 PM 55.7574 -49.9971 230° Southwest  Level Estimated
Mon 01:02:00 PM 55.6835 -50.1497 229° Southwest  Level Estimated
Mon 01:03:00 PM 55.6054 -50.3102 229° Southwest  Level Estimated
Mon 01:04:00 PM 55.5271 -50.4701 229° Southwest  Level Estimated
Mon 01:05:00 PM 55.4485 -50.6294 229° Southwest  Level Estimated
Mon 01:05:05 PM 58.9000 -56.0167 228° Southwest 460 529 36,000  Level Gander Center
Mon 01:06:00 PM 55.3698 -50.7880 229° Southwest  Level Estimated
Mon 01:06:05 PM 58.8667 -56.2500 255° West 460 529 36,000  Level Gander Center
Mon 01:07:00 PM 55.2908 -50.9460 229° Southwest  Level Estimated
Mon 01:07:05 PM 58.8000 -56.4833 241° Southwest 460 529 36,000  Level Gander Center
Mon 01:08:00 PM 55.2117 -51.1033 229° Southwest  Level Estimated
Mon 01:08:05 PM 58.7000 -56.6333 218° Southwest 460 529 36,000  Level Gander Center
Mon 01:09:00 PM 55.1323 -51.2600 229° Southwest  Level Estimated
Mon 01:09:05 PM 58.6000 -56.7667 215° Southwest 460 529 36,000  Level Gander Center
Mon 01:10:00 PM 55.0527 -51.4161 228° Southwest  Level Estimated
Mon 01:10:05 PM 58.4833 -56.9167 214° Southwest 460 529 36,000  Level Gander Center
Mon 01:11:05 PM 58.3833 -57.0500 215° Southwest 460 529 36,000  Level Gander Center
Mon 01:12:05 PM 58.2667 -57.2000 214° Southwest 470 541 36,000  Level Gander Center
Mon 01:13:05 PM 58.1833 -57.3333 220° Southwest 460 529 36,000  Level Gander Center
Mon 01:14:05 PM 58.0667 -57.4667 211° Southwest 460 529 36,000  Level Gander Center
Mon 01:15:05 PM 57.9500 -57.6000 211° Southwest 470 541 36,000  Level Gander Center
Mon 01:16:05 PM 57.8500 -57.7333 215° Southwest 460 529 36,000  Level Gander Center
Mon 01:17:05 PM 57.7500 -57.8833 219° Southwest 460 529 36,000  Level Gander Center
Mon 01:18:05 PM 57.6500 -58.0167 216° Southwest 460 529 36,000  Level Gander Center
Mon 01:19:05 PM 57.5333 -58.1500 212° Southwest 460 529 36,000  Level Gander Center
Mon 01:20:05 PM 57.4167 -58.2833 212° Southwest 460 529 36,000  Level Gander Center
Mon 01:21:05 PM 57.3167 -58.4167 216° Southwest 460 529 36,000  Level Gander Center
Mon 01:22:05 PM 57.2000 -58.5333 208° Southwest 460 529 36,000  Level Gander Center
Mon 01:23:05 PM 57.1167 -58.6667 221° Southwest 460 529 36,000  Level Gander Center
Mon 01:24:05 PM 57.0000 -58.8000 212° Southwest 460 529 36,000  Level Gander Center
Mon 01:25:05 PM 56.8833 -58.9333 212° Southwest 460 529 36,000  Level Gander Center
Mon 01:26:05 PM 56.7833 -59.0500 213° Southwest 460 529 36,000  Level Gander Center
Mon 01:27:05 PM 56.6667 -59.1833 212° Southwest 460 529 36,000  Level Gander Center
Mon 01:28:05 PM 56.5500 -59.3167 212° Southwest 460 529 36,000  Level Gander Center
Mon 01:29:05 PM 56.4500 -59.4333 213° Southwest 460 529 36,000  Level Gander Center
Mon 01:30:05 PM 56.3333 -59.5667 212° Southwest 460 529 36,000  Level Gander Center
Mon 01:31:05 PM 56.2500 -59.6833 218° Southwest 460 529 36,000  Level Gander Center
Mon 01:32:05 PM 56.1333 -59.8167 213° Southwest 460 529 36,000  Level Gander Center
Mon 01:33:05 PM 56.0333 -59.9333 213° Southwest 460 529 36,000  Level Gander Center
Mon 01:34:05 PM 55.9167 -60.0667 213° Southwest 460 529 36,000  Level Gander Center
Mon 01:35:05 PM 55.8000 -60.1833 209° Southwest 460 529 36,000  Level Gander Center
Mon 01:36:05 PM 55.6833 -60.3000 209° Southwest 460 529 36,000  Level Gander Center
Mon 01:37:05 PM 55.5833 -60.4333 217° Southwest 460 529 36,000  Level Gander Center
Mon 01:38:05 PM 55.4833 -60.5167 205° Southwest 460 529 36,000  Level Gander Center
Mon 01:39:05 PM 55.3667 -60.6667 216° Southwest 460 529 36,000  Level Gander Center
Mon 01:40:05 PM 55.2500 -60.7500 202° Southwest 460 529 36,000  Level Gander Center
Mon 01:41:05 PM 55.1500 -60.9000 221° Southwest 460 529 36,000  Level Gander Center
Mon 01:42:05 PM 55.0333 -60.9833 202° Southwest 460 529 36,000  Level Gander Center
Mon 01:43:05 PM 54.9167 -61.1000 210° Southwest 460 529 36,000  Level Gander Center
Mon 01:44:05 PM 54.8167 -61.2167 214° Southwest 460 529 36,000  Level Gander Center
Mon 01:45:05 PM 54.7000 -61.3333 210° Southwest 450 518 36,000  Level Gander Center
Mon 01:46:05 PM 54.6000 -61.4500 214° Southwest 450 518 36,000  Level Gander Center
Mon 01:47:05 PM 54.5000 -61.5667 214° Southwest 450 518 36,000  Level Gander Center
Mon 01:48:05 PM 54.3833 -61.6833 210° Southwest 450 518 36,000  Level Gander Center
Mon 01:49:05 PM 54.2833 -61.8000 214° Southwest 460 529 36,000  Level Gander Center
Mon 01:50:05 PM 54.1667 -61.9167 210° Southwest 460 529 36,000  Level Gander Center
Mon 01:51:05 PM 54.0667 -62.0000 206° Southwest 460 529 36,000  Level Gander Center
Mon 01:52:05 PM 53.9500 -62.1333 214° Southwest 460 529 36,000  Level Gander Center
Mon 01:53:05 PM 53.8500 -62.2167 206° Southwest 450 518 36,000  Level Gander Center
Mon 01:54:05 PM 53.7333 -62.3333 211° Southwest 450 518 36,000  Level Gander Center
Mon 01:55:05 PM 53.6167 -62.4333 207° Southwest 450 518 36,000  Level Gander Center
Mon 01:56:05 PM 53.5000 -62.5500 211° Southwest 460 529 36,000  Level Gander Center
Mon 01:57:05 PM 53.3833 -62.6500 207° Southwest 460 529 36,000  Level Gander Center
Mon 01:58:05 PM 53.2833 -62.7667 215° Southwest 460 529 36,000  Level Gander Center
Mon 01:59:05 PM 53.1667 -62.8667 207° Southwest 460 529 36,000  Level Gander Center
Mon 02:00:05 PM 53.0667 -62.9833 215° Southwest 460 529 36,000  Level Gander Center
Mon 02:01:05 PM 52.9500 -63.0833 207° Southwest 460 529 36,000  Level Gander Center
Mon 02:02:05 PM 52.8500 -63.2000 215° Southwest 460 529 36,000  Level Gander Center
Mon 02:03:05 PM 52.7333 -63.3000 207° Southwest 460 529 36,000  Level Gander Center
Mon 02:04:05 PM 52.6333 -63.3833 207° Southwest 450 518 36,000  Level Gander Center
Mon 02:05:05 PM 52.5000 -63.5000 208° Southwest 450 518 36,000  Level Gander Center
Mon 02:06:05 PM 52.4000 -63.5833 207° Southwest 450 518 36,000  Level Gander Center
Mon 02:07:05 PM 52.2833 -63.6833 208° Southwest 450 518 36,000  Level Gander Center
Mon 02:08:05 PM 52.1833 -63.7833 212° Southwest 450 518 36,000  Level Gander Center
Mon 02:09:05 PM 52.0667 -63.9000 212° Southwest 450 518 36,000  Level Gander Center
Mon 02:10:05 PM 51.9667 -64.0000 212° Southwest 460 529 36,000  Level Gander Center
Mon 02:11:05 PM 51.8333 -64.1000 205° Southwest 460 529 36,000  Level Gander Center
Mon 02:12:05 PM 51.7333 -64.2000 212° Southwest 460 529 36,000  Level Gander Center
Mon 02:13:05 PM 51.6167 -64.3000 208° Southwest 460 529 36,000  Level Gander Center
Mon 02:14:05 PM 51.5000 -64.4000 208° Southwest 460 529 36,000  Level Gander Center
Mon 02:15:05 PM 51.4000 -64.5000 212° Southwest 460 529 36,000  Level Gander Center
Mon 02:16:05 PM 51.3000 -64.5667 203° Southwest 460 529 36,000  Level Gander Center
Mon 02:17:05 PM 51.1667 -64.6667 205° Southwest 460 529 36,000  Level Gander Center
Mon 02:18:05 PM 51.0500 -64.7667 208° Southwest 460 529 36,000  Level Gander Center
Mon 02:19:05 PM 50.9500 -64.8667 212° Southwest 460 529 36,000  Level Gander Center
Mon 02:20:05 PM 50.8333 -64.9667 208° Southwest 460 529 36,000  Level Gander Center
Mon 02:21:05 PM 50.7167 -65.0667 208° Southwest 460 529 36,000  Level Gander Center
Mon 02:22:05 PM 50.6000 -65.1500 204° Southwest 460 529 36,000  Level Gander Center
Mon 02:23:05 PM 50.4833 -65.2500 209° Southwest 450 518 36,000  Level Gander Center
Mon 02:24:05 PM 50.3833 -65.3500 213° Southwest 450 518 36,000  Level Gander Center
Mon 02:25:05 PM 50.2833 -65.4500 213° Southwest 460 529 36,000  Level Gander Center
Mon 02:26:05 PM 50.1500 -65.5333 202° Southwest 460 529 36,000  Level Gander Center
Mon 02:27:05 PM 50.0333 -65.6000 200° South 460 529 36,000  Level Gander Center
Mon 02:28:05 PM 49.9333 -65.7333 221° Southwest 460 529 36,000  Level Gander Center
Mon 02:29:05 PM 49.8167 -65.8000 200° South 450 518 36,000  Level Gander Center
Mon 02:30:05 PM 49.7167 -65.8833 208° Southwest 450 518 36,000  Level Gander Center
Mon 02:31:05 PM 49.5833 -65.9833 206° Southwest 450 518 36,000  Level Gander Center
Mon 02:32:05 PM 49.4833 -66.0667 208° Southwest 450 518 36,000  Level Gander Center
Mon 02:33:05 PM 49.3667 -66.1667 209° Southwest 450 518 36,000  Level Gander Center
Mon 02:34:05 PM 49.2667 -66.2500 209° Southwest 450 518 36,000  Level Gander Center
Mon 02:35:05 PM 49.1333 -66.3500 206° Southwest 450 518 36,000  Level Gander Center
Mon 02:36:05 PM 49.0333 -66.4167 204° Southwest 450 518 36,000  Level Gander Center
Mon 02:37:05 PM 48.9167 -66.5000 205° Southwest 450 518 36,000  Level Gander Center
Mon 02:38:05 PM 48.8167 -66.5833 209° Southwest 450 518 36,000  Level Gander Center
Mon 02:39:05 PM 48.7000 -66.6833 210° Southwest 460 529 36,000  Level Gander Center
Mon 02:40:05 PM 48.5833 -66.7667 205° Southwest 460 529 36,000  Level Gander Center
Mon 02:41:05 PM 48.4833 -66.8500 209° Southwest 460 529 36,000  Level Gander Center
Mon 02:42:05 PM 48.3500 -66.9500 207° Southwest 460 529 36,000  Level Gander Center
Mon 02:43:05 PM 48.2333 -67.0333 205° Southwest 460 529 36,000  Level Gander Center
Mon 02:44:05 PM 48.1333 -67.1167 209° Southwest 460 529 36,000  Level Gander Center
Mon 02:45:05 PM 48.0000 -67.2000 203° Southwest 460 529 36,000  Level Gander Center
Mon 02:46:05 PM 47.8833 -67.2833 206° Southwest 470 541 36,000  Level Gander Center
Mon 02:47:05 PM 47.7833 -67.3833 214° Southwest 470 541 36,000  Level Gander Center
Mon 02:48:05 PM 47.6667 -67.4667 206° Southwest 470 541 36,000  Level Gander Center
Mon 02:49:05 PM 47.5333 -67.5500 203° Southwest 460 529 36,000  Level Gander Center
Mon 02:54:11 PM 46.9850 -67.9810 203° Southwest 36,000  Level FlightAware ADS-B
Mon 02:56:26 PM 46.7400 -68.1930 211° Southwest 36,000  Level FlightAware ADS-B
Mon 02:57:01 PM 46.6720 -68.2520 211° Southwest 462 532 36,000  Level FlightAware ADS-B
Mon 02:57:36 PM 46.6070 -68.3090 211° Southwest 465 535 36,000  Level FlightAware ADS-B
Mon 02:58:16 PM 46.5300 -68.3740 210° Southwest 465 535 36,000  Level FlightAware ADS-B
Mon 02:58:56 PM 46.4610 -68.4340 211° Southwest 464 534 36,000  Level FlightAware ADS-B
Mon 02:59:36 PM 46.3840 -68.5000 211° Southwest 464 534 36,000  Level FlightAware ADS-B
Mon 03:00:06 PM 46.3310 -68.5450 210° Southwest 462 532 36,000  Level FlightAware ADS-B
Mon 03:00:45 PM 46.2540 -68.6110 211° Southwest 464 534 36,000  Level FlightAware ADS-B
Mon 03:01:20 PM 46.1890 -68.6660 210° Southwest 463 533 36,000  Level FlightAware ADS-B
Mon 03:01:55 PM 46.1250 -68.7210 211° Southwest 462 532 36,000  Level FlightAware ADS-B
Mon 03:02:30 PM 46.0600 -68.7750 210° Southwest 463 533 36,000  Level FlightAware ADS-B
Mon 03:03:05 PM 45.9960 -68.8290 210° Southwest 462 532 36,000  Level FlightAware ADS-B
Mon 03:03:40 PM 45.9340 -68.8810 210° Southwest 455 524 36,000  Level FlightAware ADS-B
Mon 03:04:15 PM 45.8700 -68.9350 210° Southwest 449 517 36,000  Level FlightAware ADS-B
Mon 03:04:50 PM 45.8070 -68.9880 210° Southwest 447 514 36,000  Level FlightAware ADS-B
Mon 03:05:25 PM 45.7450 -69.0390 210° Southwest 444 511 36,000  Level FlightAware ADS-B
Mon 03:06:00 PM 45.6830 -69.0910 210° Southwest 444 511 36,000  Level FlightAware ADS-B
Mon 03:06:35 PM 45.6220 -69.1420 210° Southwest 444 511 36,000  Level FlightAware ADS-B
Mon 03:07:10 PM 45.5590 -69.1930 210° Southwest 446 513 36,000  Level FlightAware ADS-B
Mon 03:07:40 PM 45.5080 -69.2360 211° Southwest 446 513 36,000  Level FlightAware ADS-B
Mon 03:08:20 PM 45.4350 -69.2950 210° Southwest 439 505 36,000  Level FlightAware ADS-B
Mon 03:08:55 PM 45.3740 -69.3450 210° Southwest 435 501 36,000  Level FlightAware ADS-B
Mon 03:09:30 PM 45.3150 -69.3940 210° Southwest 434 499 36,000  Level FlightAware ADS-B
Mon 03:10:10 PM 45.2440 -69.4520 210° Southwest 434 499 36,000  Level FlightAware ADS-B
Mon 03:10:45 PM 45.1830 -69.5010 210° Southwest 432 497 36,000  Level FlightAware ADS-B
Mon 03:11:20 PM 45.1230 -69.5500 210° Southwest 431 496 36,000  Level FlightAware ADS-B
Mon 03:11:55 PM 45.0630 -69.5990 210° Southwest 429 494 36,000  Level FlightAware ADS-B
Mon 03:12:30 PM 45.0040 -69.6470 210° Southwest 426 490 36,000  Level FlightAware ADS-B
Mon 03:13:05 PM 44.9470 -69.6930 210° Southwest 425 489 36,000  Level FlightAware ADS-B
Mon 03:13:40 PM 44.8850 -69.7420 209° Southwest 423 487 36,000  Level FlightAware ADS-B
Mon 03:14:15 PM 44.8260 -69.7900 210° Southwest 421 484 36,000  Level FlightAware ADS-B
Mon 03:14:54 PM 44.7580 -69.8440 209° Southwest 420 483 36,000  Level FlightAware ADS-B
Mon 03:15:30 PM 44.6990 -69.8910 210° Southwest 417 480 36,000  Level FlightAware ADS-B
Mon 03:16:02 PM 44.6460 -69.9340 210° Southwest 416 479 36,000  Level FlightAware ADS-B
Mon 03:16:36 PM 44.5890 -69.9780 209° Southwest 412 474 36,000  Level FlightAware ADS-B
Mon 03:17:14 PM 44.5290 -70.0270 210° Southwest 405 466 36,000  Level FlightAware ADS-B
Mon 03:17:48 PM 44.4740 -70.0700 209° Southwest 402 463 36,000  Level FlightAware ADS-B
Mon 03:18:22 PM 44.4160 -70.1150 209° Southwest 401 461 36,000  Level FlightAware ADS-B
Mon 03:18:58 PM 44.3580 -70.1610 210° Southwest 399 459 36,000  Level FlightAware ADS-B
Mon 03:19:35 PM 44.3010 -70.2060 209° Southwest 395 455 36,000  Level FlightAware ADS-B
Mon 03:20:06 PM 44.2510 -70.2460 210° Southwest 394 453 36,000  Level FlightAware ADS-B
Mon 03:20:42 PM 44.1920 -70.2910 209° Southwest 393 452 36,000  Level FlightAware ADS-B
Mon 03:21:20 PM 44.1320 -70.3380 209° Southwest 390 449 36,000  Level FlightAware ADS-B
Mon 03:21:54 PM 44.0790 -70.3800 210° Southwest 388 447 36,000  Level FlightAware ADS-B
Mon 03:22:29 PM 44.0270 -70.4200 209° Southwest 388 447 36,000  Level FlightAware ADS-B
Mon 03:23:01 PM 43.9770 -70.4590 209° Southwest 387 445 36,000  Level FlightAware ADS-B
Mon 03:23:37 PM 43.9180 -70.5040 209° Southwest 384 442 36,000  Level FlightAware ADS-B
Mon 03:24:14 PM 43.8620 -70.5480 210° Southwest 382 440 36,000  Level FlightAware ADS-B
Mon 03:24:47 PM 43.8110 -70.5870 209° Southwest 381 438 36,000  Level FlightAware ADS-B
Mon 03:25:23 PM 43.7550 -70.6300 209° Southwest 380 437 36,000  Level FlightAware ADS-B
Mon 03:25:59 PM 43.7010 -70.6720 209° Southwest 380 437 36,000  Level FlightAware ADS-B
Mon 03:26:35 PM 43.6440 -70.7150 209° Southwest 380 437 36,000  Level FlightAware ADS-B
Mon 03:27:07 PM 43.5950 -70.7520 209° Southwest 380 437 36,000  Level FlightAware ADS-B
Mon 03:27:43 PM 43.5390 -70.7950 209° Southwest 381 438 36,000  Level FlightAware ADS-B
Mon 03:28:19 PM 43.4850 -70.8360 209° Southwest 381 438 36,000  Level FlightAware ADS-B
Mon 03:28:51 PM 43.4340 -70.8750 209° Southwest 381 438 36,000  Level FlightAware ADS-B
Mon 03:29:27 PM 43.3790 -70.9170 209° Southwest 382 440 36,000  Level FlightAware ADS-B
Mon 03:30:05 PM 43.3210 -70.9610 209° Southwest 382 440 36,000  Level FlightAware ADS-B
Mon 03:30:37 PM 43.2700 -70.9990 208° Southwest 383 441 36,000  Level FlightAware ADS-B
Mon 03:31:13 PM 43.2140 -71.0410 209° Southwest 388 447 36,000  Level FlightAware ADS-B
Mon 03:31:47 PM 43.1600 -71.0820 209° Southwest 393 452 36,000  Level FlightAware ADS-B
Mon 03:32:23 PM 43.1030 -71.1250 209° Southwest 392 451 36,000  Level FlightAware ADS-B
Mon 03:32:59 PM 43.0460 -71.1670 208° Southwest 391 450 36,000  Level FlightAware ADS-B
Mon 03:33:31 PM 42.9950 -71.2060 209° Southwest 391 450 36,000  Level FlightAware ADS-B
Mon 03:34:07 PM 42.9390 -71.2470 208° Southwest 389 448 36,000  Level FlightAware ADS-B
Mon 03:34:43 PM 42.8820 -71.2900 209° Southwest 388 447 36,000  Level FlightAware ADS-B
Mon 03:35:20 PM 42.8230 -71.3330 208° Southwest 389 448 36,000  Level FlightAware ADS-B
Mon 03:35:51 PM 42.7750 -71.3690 209° Southwest 389 448 36,000  Level FlightAware ADS-B
Mon 03:36:27 PM 42.7180 -71.4110 208° Southwest 390 449 36,000  Level FlightAware ADS-B
Mon 03:37:03 PM 42.6610 -71.4530 208° Southwest 390 449 36,000  Level FlightAware ADS-B
Mon 03:37:39 PM 42.6040 -71.4950 208° Southwest 390 449 36,000  Level FlightAware ADS-B
Mon 03:38:11 PM 42.5520 -71.5340 209° Southwest 390 449 36,000  Level FlightAware ADS-B
Mon 03:38:45 PM 42.5000 -71.5710 208° Southwest 388 447 36,000  Level FlightAware ADS-B
Mon 03:39:23 PM 42.4380 -71.6170 209° Southwest 385 443 36,000  Level FlightAware ADS-B
Mon 03:39:59 PM 42.3820 -71.6580 208° Southwest 384 442 36,000  Level FlightAware ADS-B
Mon 03:40:31 PM 42.3320 -71.6940 208° Southwest 383 441 36,000  Level FlightAware ADS-B
Mon 03:41:15 PM 42.2650 -71.7430 208° Southwest 383 441 36,000  Level FlightAware ADS-B
Mon 03:41:49 PM 42.2110 -71.7820 208° Southwest 383 441 36,000  Level FlightAware ADS-B
Mon 03:42:23 PM 42.1620 -71.8180 209° Southwest 383 441 36,000  Level FlightAware ADS-B
Mon 03:42:59 PM 42.1020 -71.8610 208° Southwest 384 442 36,000  Level FlightAware ADS-B
Mon 03:43:35 PM 42.0460 -71.9020 209° Southwest 383 441 36,000  Level FlightAware ADS-B
Mon 03:44:08 PM 41.9950 -71.9390 208° Southwest 383 441 36,000  Level FlightAware ADS-B
Mon 03:44:43 PM 41.9390 -71.9790 208° Southwest 384 442 36,000  Level FlightAware ADS-B
Mon 03:45:19 PM 41.8830 -72.0180 207° Southwest 384 442 36,000  Level FlightAware ADS-B
Mon 03:45:50 PM 41.8410 -72.0490 209° Southwest 385 443 36,000  Level FlightAware ADS-B
Mon 03:46:25 PM 41.7820 -72.0910 208° Southwest 385 443 36,000  Level FlightAware ADS-B
Mon 03:46:52 PM 41.7380 -72.1220 208° Southwest 386 444 36,000  Level FlightAware ADS-B
Mon 03:47:35 PM 41.6700 -72.1700 208° Southwest 386 444 36,000  Level FlightAware ADS-B
Mon 03:48:07 PM 41.6190 -72.2070 208° Southwest 387 445 36,000  Level FlightAware ADS-B
Mon 03:48:42 PM 41.5640 -72.2460 208° Southwest 388 447 36,000  Level FlightAware ADS-B
Mon 03:49:19 PM 41.5050 -72.2880 208° Southwest 389 448 36,000  Level FlightAware ADS-B
Mon 03:49:52 PM 41.4540 -72.3240 208° Southwest 391 450 36,000  Level FlightAware ADS-B
Mon 03:50:24 PM 41.4020 -72.3600 207° Southwest 391 450 36,000  Level FlightAware ADS-B
Mon 03:51:01 PM 41.3440 -72.4010 208° Southwest 391 450 36,000  Level FlightAware ADS-B
Mon 03:51:39 PM 41.2830 -72.4440 208° Southwest 391 450 36,000  Level FlightAware ADS-B
Mon 03:52:12 PM 41.2290 -72.4820 208° Southwest 390 449 36,000  Level FlightAware ADS-B
Mon 03:52:47 PM 41.1780 -72.5240 212° Southwest 381 438 36,000  Level FlightAware ADS-B
Mon 03:53:22 PM 41.1260 -72.5760 217° Southwest 383 441 36,000  Level FlightAware ADS-B
Mon 03:53:59 PM 41.0760 -72.6260 217° Southwest 384 442 36,000  Level FlightAware ADS-B
Mon 03:54:29 PM 41.0320 -72.6700 217° Southwest 386 444 36,000  Level FlightAware ADS-B
Mon 03:55:07 PM 40.9780 -72.7230 217° Southwest 387 445 36,000  Level FlightAware ADS-B
Mon 03:55:25 PM 40.9506 -72.7503 217° Southwest 387 445 36,000  Level FlightAware ADS-B
Mon 03:55:56 PM 40.9060 -72.7944 217° Southwest 389 448 36,000  Level FlightAware ADS-B
Mon 03:56:27 PM 40.8606 -72.8392 217° Southwest 389 448 36,000  Level FlightAware ADS-B
Mon 03:56:57 PM 40.8170 -72.8821 217° Southwest 388 447 36,000  Level FlightAware ADS-B
Mon 03:57:29 PM 40.7714 -72.9270 217° Southwest 388 447 36,000  Level FlightAware ADS-B
Mon 03:58:02 PM 40.7252 -72.9723 217° Southwest 387 445 36,000  Level FlightAware ADS-B
Mon 03:58:32 PM 40.6821 -73.0146 217° Southwest 387 445 36,000  Level FlightAware ADS-B
Mon 03:59:04 PM 40.6363 -73.0594 217° Southwest 387 445 36,000  Level FlightAware ADS-B
Mon 03:59:35 PM 40.5907 -73.1039 217° Southwest 387 445 36,000  Level FlightAware ADS-B
Mon 04:00:13 PM 40.5364 -73.1568 217° Southwest 387 445 36,000  Level FlightAware ADS-B
Mon 04:00:50 PM 40.4834 -73.2083 216° Southwest 386 444 36,000  Level FlightAware ADS-B
Mon 04:01:28 PM 40.4290 -73.2611 216° Southwest 386 444 36,000  Level FlightAware ADS-B
Mon 04:02:04 PM 40.3778 -73.3106 216° Southwest 385 443 36,000  Level FlightAware ADS-B
Mon 04:02:50 PM 40.3121 -73.3741 216° Southwest 386 444 36,000  Level FlightAware ADS-B
Mon 04:03:28 PM 40.2572 -73.4272 216° Southwest 387 445 36,000  Level FlightAware ADS-B
Mon 04:04:06 PM 40.2032 -73.4791 216° Southwest 391 450 36,000  Level FlightAware ADS-B
Mon 04:04:36 PM 40.1577 -73.5228 216° Southwest 391 450 36,000  Level FlightAware ADS-B
Mon 04:05:07 PM 40.1132 -73.5655 216° Southwest 391 450 36,000  Level FlightAware ADS-B
Mon 04:05:37 PM 40.0710 -73.6060 216° Southwest 392 451 36,000  Level FlightAware ADS-B
Mon 04:05:56 PM 40.0416 -73.6339 216° Southwest 391 450 36,000  Level FlightAware ADS-B
Mon 04:06:33 PM 39.9880 -73.6850 216° Southwest 391 450 36,000  Level FlightAware ADS-B
Mon 04:07:03 PM 39.9443 -73.7267 216° Southwest 389 448 36,000  Level FlightAware ADS-B
Mon 04:07:34 PM 39.8991 -73.7696 216° Southwest 389 448 36,000  Level FlightAware ADS-B
Mon 04:08:04 PM 39.8550 -73.8115 216° Southwest 388 447 36,000  Level FlightAware ADS-B
Mon 04:08:37 PM 39.8084 -73.8557 216° Southwest 381 438 36,000  Level FlightAware ADS-B
Mon 04:09:15 PM 39.7545 -73.9067 216° Southwest 376 433 36,000  Level FlightAware ADS-B
Mon 04:09:51 PM 39.7047 -73.9538 216° Southwest 377 434 36,000  Level FlightAware ADS-B
Mon 04:10:22 PM 39.6600 -73.9960 216° Southwest 376 433 36,000  Level FlightAware ADS-B
Mon 04:11:02 PM 39.6052 -74.0476 216° Southwest 376 433 36,000  Level FlightAware ADS-B
Mon 04:11:33 PM 39.5603 -74.0897 216° Southwest 375 432 36,000  Level FlightAware ADS-B
Mon 04:12:07 PM 39.5135 -74.1335 216° Southwest 376 433 36,000  Level FlightAware ADS-B
Mon 04:12:40 PM 39.4661 -74.1780 216° Southwest 377 434 36,000  Level FlightAware ADS-B
Mon 04:13:11 PM 39.4234 -74.2180 216° Southwest 377 434 36,000  Level FlightAware ADS-B
Mon 04:13:41 PM 39.3807 -74.2578 216° Southwest 377 434 36,000  Level FlightAware ADS-B
Mon 04:14:14 PM 39.3343 -74.3010 216° Southwest 377 434 36,000  Level FlightAware ADS-B
Mon 04:15:01 PM 39.2675 -74.3628 216° Southwest 378 435 36,000  Level FlightAware ADS-B
Mon 04:15:35 PM 39.2161 -74.4022 211° Southwest 383 441 36,000  Level FlightAware ADS-B
Mon 04:16:08 PM 39.1658 -74.4395 210° Southwest 383 441 36,000  Level FlightAware ADS-B
Mon 04:16:38 PM 39.1196 -74.4745 210° Southwest 382 440 36,000  Level FlightAware ADS-B
Mon 04:17:09 PM 39.0728 -74.5104 211° Southwest 381 438 36,000  Level FlightAware ADS-B
Mon 04:17:40 PM 39.0257 -74.5464 211° Southwest 380 437 36,000  Level FlightAware ADS-B
Mon 04:18:22 PM 38.9618 -74.5953 211° Southwest 382 440 36,000  Level FlightAware ADS-B
Mon 04:18:53 PM 38.9161 -74.6302 211° Southwest 382 440 36,000  Level FlightAware ADS-B
Mon 04:19:50 PM 38.8300 -74.6950 210° Southwest 376 433 36,000  Level FlightAware ADS-B
Mon 04:20:07 PM 38.8022 -74.7170 212° Southwest 383 441 36,000  Level FlightAware ADS-B
Mon 04:20:38 PM 38.7548 -74.7529 211° Southwest 386 444 36,000  Level FlightAware ADS-B
Mon 04:21:11 PM 38.7049 -74.7907 211° Southwest 387 445 36,000  Level FlightAware ADS-B
Mon 04:22:03 PM 38.6242 -74.8519 211° Southwest 388 447 36,000  Level FlightAware ADS-B
Mon 04:22:37 PM 38.5717 -74.8914 210° Southwest 387 445 36,000  Level FlightAware ADS-B
Mon 04:23:20 PM 38.5080 -74.9390 210° Southwest 378 435 36,000  Level FlightAware ADS-B
Mon 04:23:58 PM 38.4469 -74.9853 211° Southwest 386 444 36,000  Level FlightAware ADS-B
Mon 04:24:33 PM 38.3938 -75.0251 210° Southwest 386 444 36,000  Level FlightAware ADS-B
Mon 04:25:03 PM 38.3488 -75.0588 210° Southwest 386 444 36,000  Level FlightAware ADS-B
Mon 04:25:36 PM 38.2963 -75.0981 210° Southwest 388 447 36,000  Level FlightAware ADS-B
Mon 04:26:17 PM 38.2400 -75.1400 210° Southwest 388 447 36,000  Level FlightAware ADS-B
Mon 04:26:39 PM 38.2002 -75.1697 210° Southwest 388 447 36,000  Level FlightAware ADS-B
Mon 04:27:09 PM 38.1526 -75.2053 210° Southwest 389 448 36,000  Level FlightAware ADS-B
Mon 04:27:44 PM 38.0988 -75.2452 210° Southwest 390 449 36,000  Level FlightAware ADS-B
Mon 04:28:14 PM 38.0519 -75.2800 210° Southwest 392 451 36,000  Level FlightAware ADS-B
Mon 04:28:44 PM 38.0038 -75.3157 210° Southwest 393 452 36,000 135 Level FlightAware ADS-B
Mon 04:29:43 PM 37.9150 -75.3810 210° Southwest 394 453 36,200 424 Climbing FlightAware ADS-B
Mon 04:30:23 PM 37.8500 -75.4290 210° Southwest 396 456 36,700 800 Climbing FlightAware ADS-B
Mon 04:30:58 PM 37.7980 -75.4670 210° Southwest 397 457 37,200 1,091 Climbing FlightAware ADS-B
Mon 04:31:18 PM 37.7601 -75.4953 211° Southwest 402 463 37,700 889 Climbing FlightAware ADS-B
Mon 04:31:52 PM 37.7065 -75.5347 210° Southwest 402 463 38,000 281 Climbing FlightAware ADS-B
Mon 04:32:22 PM 37.6559 -75.5718 210° Southwest 405 466 38,000  Level FlightAware ADS-B
Mon 04:32:54 PM 37.6042 -75.6097 210° Southwest 404 465 38,000  Level FlightAware ADS-B
Mon 04:33:29 PM 37.5473 -75.6512 210° Southwest 405 466 38,000  Level FlightAware ADS-B
Mon 04:34:04 PM 37.4990 -75.6870 210° Southwest 397 457 38,000  Level FlightAware ADS-B
Mon 04:34:41 PM 37.4350 -75.7330 210° Southwest 396 456 38,000  Level FlightAware ADS-B
Mon 04:35:16 PM 37.3790 -75.7740 210° Southwest 396 456 38,000  Level FlightAware ADS-B
Mon 04:36:08 PM 37.3020 -75.8300 210° Southwest 396 456 38,000  Level FlightAware ADS-B
Mon 04:36:38 PM 37.2460 -75.8700 210° Southwest 406 467 38,000  Level FlightAware ADS-B
Mon 04:37:06 PM 37.1967 -75.9057 210° Southwest 406 467 38,000  Level FlightAware ADS-B
Mon 04:37:38 PM 37.1452 -75.9428 210° Southwest 406 467 38,000  Level FlightAware ADS-B
Mon 04:38:10 PM 37.0930 -75.9803 210° Southwest 408 470 38,000  Level FlightAware ADS-B
Mon 04:38:41 PM 37.0425 -76.0167 210° Southwest 409 471 38,000  Level FlightAware ADS-B
Mon 04:39:20 PM 36.9784 -76.0627 210° Southwest 409 471 38,000  Level FlightAware ADS-B
Mon 04:39:50 PM 36.9290 -76.0981 210° Southwest 409 471 38,000  Level FlightAware ADS-B
Mon 04:40:22 PM 36.8752 -76.1364 210° Southwest 410 472 38,000  Level FlightAware ADS-B
Mon 04:40:58 PM 36.8164 -76.1785 210° Southwest 413 475 38,000  Level FlightAware ADS-B
Mon 04:41:30 PM 36.7650 -76.2150 210° Southwest 413 475 38,000  Level FlightAware ADS-B
Mon 04:42:14 PM 36.7060 -76.2570 210° Southwest 407 468 38,000  Level FlightAware ADS-B
Mon 04:42:52 PM 36.6290 -76.3120 210° Southwest 417 480 38,000  Level FlightAware ADS-B
Mon 04:43:23 PM 36.5820 -76.3460 210° Southwest 411 473 38,000  Level FlightAware ADS-B
Mon 04:43:58 PM 36.5180 -76.3900 209° Southwest 410 472 38,000  Level FlightAware ADS-B
Mon 04:44:33 PM 36.4600 -76.4310 210° Southwest 410 472 38,000  Level FlightAware ADS-B
Mon 04:45:08 PM 36.4030 -76.4720 210° Southwest 409 471 38,000  Level FlightAware ADS-B
Mon 04:45:48 PM 36.3350 -76.5200 210° Southwest 409 471 38,000  Level FlightAware ADS-B
Mon 04:46:23 PM 36.2760 -76.5610 209° Southwest 411 473 38,000  Level FlightAware ADS-B
Mon 04:46:58 PM 36.2160 -76.6030 209° Southwest 412 474 38,000  Level FlightAware ADS-B
Mon 04:47:28 PM 36.1670 -76.6370 209° Southwest 412 474 38,000  Level FlightAware ADS-B
Mon 04:48:08 PM 36.0990 -76.6850 210° Southwest 411 473 38,000  Level FlightAware ADS-B
Mon 04:48:43 PM 36.0390 -76.7260 209° Southwest 411 473 38,000  Level FlightAware ADS-B
Mon 04:49:25 PM 35.9780 -76.7700 210° Southwest 411 473 38,000  Level FlightAware ADS-B
Mon 04:49:53 PM 35.9220 -76.8080 209° Southwest 412 474 38,000  Level FlightAware ADS-B
Mon 04:50:33 PM 35.8660 -76.8480 210° Southwest 412 474 38,000  Level FlightAware ADS-B
Mon 04:51:10 PM 35.8140 -76.8850 210° Southwest 412 474 38,000  Level FlightAware ADS-B
Mon 04:51:46 PM 35.7630 -76.9210 210° Southwest 412 474 38,000  Level FlightAware ADS-B
Mon 04:52:22 PM 35.7130 -76.9570 210° Southwest 412 474 38,000  Level FlightAware ADS-B
Mon 04:52:58 PM 35.6620 -76.9930 210° Southwest 412 474 38,000  Level FlightAware ADS-B
Mon 04:53:34 PM 35.6120 -77.0290 210° Southwest 412 474 38,000  Level FlightAware ADS-B
Mon 04:54:11 PM 35.5600 -77.0660 210° Southwest 412 474 38,000  Level FlightAware ADS-B
Mon 04:54:45 PM 35.5120 -77.1000 210° Southwest 412 474 38,000  Level FlightAware ADS-B
Mon 04:55:21 PM 35.4610 -77.1350 209° Southwest 412 474 38,000  Level FlightAware ADS-B
Mon 04:55:58 PM 35.4090 -77.1720 210° Southwest 412 474 38,000  Level FlightAware ADS-B
Mon 04:56:34 PM 35.3590 -77.2080 210° Southwest 412 474 38,000  Level FlightAware ADS-B
Mon 04:57:10 PM 35.3080 -77.2440 210° Southwest 412 474 38,000  Level FlightAware ADS-B
Mon 04:57:46 PM 35.2580 -77.2790 210° Southwest 412 474 38,000  Level FlightAware ADS-B
Mon 04:58:22 PM 35.2070 -77.3150 210° Southwest 412 474 38,000  Level FlightAware ADS-B
Mon 04:58:58 PM 35.1570 -77.3510 210° Southwest 412 474 38,000  Level FlightAware ADS-B
Mon 04:59:34 PM 35.1060 -77.3860 209° Southwest 412 474 38,000  Level FlightAware ADS-B
Mon 05:00:30 PM 34.8467 -77.5408 209° Southwest 427 491 38,000  Level Washington Center
Mon 05:01:31 PM 34.7347 -77.6214 211° Southwest 420 483 38,000  Level Washington Center
Mon 05:07:32 PM 34.0560 -77.9600 211° Southwest 442 509 38,000  Level FlightAware ADS-B
Mon 05:08:07 PM 33.9860 -77.9810 194° South 442 509 38,000  Level FlightAware ADS-B
Mon 05:08:48 PM 33.9180 -78.0000 193° South 442 509 38,000  Level FlightAware ADS-B
Mon 05:09:22 PM 33.8360 -78.0240 194° South 441 507 38,000  Level FlightAware ADS-B
Mon 05:09:57 PM 33.7670 -78.0440 194° South 441 507 38,000  Level FlightAware ADS-B
Mon 05:10:32 PM 33.7020 -78.0620 193° South 442 509 38,000  Level FlightAware ADS-B
Mon 05:11:14 PM 33.6320 -78.0820 193° South 442 509 38,000  Level FlightAware ADS-B
Mon 05:11:52 PM 33.5420 -78.1080 194° South 445 512 38,000  Level FlightAware ADS-B
Mon 05:12:27 PM 33.4730 -78.1280 194° South 445 512 38,000  Level FlightAware ADS-B
Mon 05:13:02 PM 33.3980 -78.1490 193° South 445 512 38,000  Level FlightAware ADS-B
Mon 05:13:43 PM 33.3200 -78.1720 194° South 447 514 38,000  Level FlightAware ADS-B
Mon 05:14:22 PM 33.2450 -78.1930 193° South 448 516 38,000  Level FlightAware ADS-B
Mon 05:14:57 PM 33.1680 -78.2150 193° South 447 514 38,000  Level FlightAware ADS-B
Mon 05:15:32 PM 33.1030 -78.2330 193° South 446 513 38,000  Level FlightAware ADS-B
Mon 05:16:07 PM 33.0250 -78.2550 193° South 446 513 38,000  Level FlightAware ADS-B
Mon 05:16:47 PM 32.9460 -78.2780 194° South 447 514 38,000  Level FlightAware ADS-B
Mon 05:17:22 PM 32.8740 -78.2980 193° South 446 513 38,000  Level FlightAware ADS-B
Mon 05:17:57 PM 32.8070 -78.3170 193° South 446 513 38,000  Level FlightAware ADS-B
Mon 05:18:32 PM 32.7370 -78.3370 194° South 448 516 38,000  Level FlightAware ADS-B
Mon 05:19:07 PM 32.6650 -78.3570 193° South 448 516 38,000  Level FlightAware ADS-B
Mon 05:19:42 PM 32.5920 -78.3770 193° South 450 518 38,000  Level FlightAware ADS-B
Mon 05:20:18 PM 32.5220 -78.3970 194° South 449 517 38,000  Level FlightAware ADS-B
Mon 05:20:52 PM 32.4510 -78.4160 193° South 449 517 38,000  Level FlightAware ADS-B
Mon 05:21:27 PM 32.3820 -78.4360 194° South 449 517 38,000  Level FlightAware ADS-B
Mon 05:22:08 PM 32.3050 -78.4590 194° South 448 516 38,000  Level FlightAware ADS-B
Mon 05:22:42 PM 32.2310 -78.4810 194° South 446 513 38,000  Level FlightAware ADS-B
Mon 05:23:28 PM 32.1510 -78.5020 193° South 446 513 38,000  Level FlightAware ADS-B
Mon 05:24:04 PM 32.0890 -78.5190 193° South 446 513 38,000  Level FlightAware ADS-B
Mon 05:24:40 PM 32.0280 -78.5360 193° South 446 513 38,000  Level FlightAware ADS-B
Mon 05:25:16 PM 31.9660 -78.5530 193° South 446 513 38,000  Level FlightAware ADS-B
Mon 05:25:52 PM 31.9050 -78.5690 193° South 446 513 38,000  Level FlightAware ADS-B
Mon 05:26:28 PM 31.8430 -78.5860 193° South 446 513 38,000  Level FlightAware ADS-B
Mon 05:27:04 PM 31.7820 -78.6030 193° South 446 513 38,000  Level FlightAware ADS-B
Mon 05:27:40 PM 31.7200 -78.6200 193° South 446 513 38,000  Level FlightAware ADS-B
Mon 05:28:13 PM 31.5670 -78.6710 196° South 448 516 38,000  Level FlightAware ADS-B
Mon 05:28:54 PM 31.4970 -78.6900 193° South 448 516 38,000  Level FlightAware ADS-B
Mon 05:29:30 PM 31.4350 -78.7070 193° South 448 516 38,000  Level FlightAware ADS-B
Mon 05:30:04 PM 31.3770 -78.7230 193° South 448 516 38,000  Level FlightAware ADS-B
Mon 05:30:40 PM 31.3150 -78.7400 193° South 448 516 38,000  Level FlightAware ADS-B
Mon 05:31:16 PM 31.2530 -78.7560 192° South 448 516 38,000  Level FlightAware ADS-B
Mon 05:31:53 PM 31.1900 -78.7730 193° South 448 516 38,000  Level FlightAware ADS-B
Mon 05:32:30 PM 31.1260 -78.7910 194° South 448 516 38,000  Level FlightAware ADS-B
Mon 05:33:06 PM 31.0650 -78.8070 193° South 448 516 38,000  Level FlightAware ADS-B
Mon 05:33:42 PM 31.0030 -78.8240 193° South 448 516 38,000  Level FlightAware ADS-B
Mon 05:34:18 PM 30.9410 -78.8410 193° South 448 516 38,000  Level FlightAware ADS-B
Mon 05:34:52 PM 30.8830 -78.8560 193° South 448 516 38,000  Level FlightAware ADS-B
Mon 05:35:28 PM 30.8210 -78.8730 193° South 448 516 38,000  Level FlightAware ADS-B
Mon 05:36:05 PM 30.7570 -78.8900 193° South 448 516 38,000  Level FlightAware ADS-B
Mon 05:36:39 PM 30.6990 -78.9060 193° South 448 516 38,000  Level FlightAware ADS-B
Mon 05:37:15 PM 30.6370 -78.9220 193° South 448 516 38,000  Level FlightAware ADS-B
Mon 05:37:52 PM 30.5740 -78.9390 193° South 448 516 38,000  Level FlightAware ADS-B
Mon 05:38:24 PM 30.3347 -79.0328 193° South 459 528 38,000  Level Miami Center
Mon 05:39:24 PM 30.2089 -79.0856 200° South 469 540 38,000  Level Miami Center
Mon 05:40:24 PM 30.0869 -79.1358 200° South 469 540 38,000  Level Miami Center
Mon 05:41:24 PM 29.9569 -79.1906 200° South 467 537 38,000  Level Miami Center
Mon 05:42:24 PM 29.8331 -79.2356 197° South 467 537 38,000  Level Miami Center
Mon 05:44:24 PM 29.5897 -79.3328 199° South 468 539 38,000  Level Miami Center
Mon 05:45:24 PM 29.4636 -79.3753 196° South 468 539 38,000  Level Miami Center
Mon 05:50:30 PM 28.8310 -79.6120 196° South 470 541 38,000  Level FlightAware ADS-B
Mon 05:51:09 PM 28.7490 -79.6420 198° South 470 541 38,000  Level FlightAware ADS-B
Mon 05:51:40 PM 28.6860 -79.6660 198° South 470 541 38,000  Level FlightAware ADS-B
Mon 05:52:14 PM 28.6140 -79.6930 198° South 470 541 38,000  Level FlightAware ADS-B
Mon 05:52:50 PM 28.5420 -79.7190 198° South 471 542 38,000  Level FlightAware ADS-B
Mon 05:53:24 PM 28.4730 -79.7450 198° South 471 542 38,000  Level FlightAware ADS-B
Mon 05:54:05 PM 28.3870 -79.7770 198° South 473 544 38,000  Level FlightAware ADS-B
Mon 05:54:44 PM 28.3030 -79.8080 198° South 471 542 38,000  Level FlightAware ADS-B
Mon 05:55:19 PM 28.2310 -79.8350 198° South 470 541 38,000  Level FlightAware ADS-B
Mon 05:55:54 PM 28.1580 -79.8620 198° South 461 531 38,000  Level FlightAware ADS-B
Mon 05:56:25 PM 28.0950 -79.8860 199° South 461 531 38,000  Level FlightAware ADS-B
Mon 05:57:04 PM 28.0130 -79.9160 198° South 471 542 38,000  Level FlightAware ADS-B
Mon 05:57:45 PM 27.9340 -79.9450 198° South 471 542 38,000  Level FlightAware ADS-B
Mon 05:58:19 PM 27.8580 -79.9730 198° South 471 542 38,000  Level FlightAware ADS-B
Mon 05:58:55 PM 27.7890 -79.9980 198° South 471 542 38,000  Level FlightAware ADS-B
Mon 05:59:29 PM 27.7120 -80.0260 198° South 471 542 38,000  Level FlightAware ADS-B
Mon 06:00:05 PM 27.6400 -80.0530 198° South 472 543 38,000  Level FlightAware ADS-B
Mon 06:00:40 PM 27.5640 -80.0800 197° South 474 545 38,000  Level FlightAware ADS-B
Mon 06:01:16 PM 27.4930 -80.1060 198° South 475 547 38,000  Level FlightAware ADS-B
Mon 06:01:50 PM 27.4180 -80.1340 198° South 476 548 38,000  Level FlightAware ADS-B
Mon 06:02:25 PM 27.3450 -80.1600 198° South 474 545 38,000  Level FlightAware ADS-B
Mon 06:03:00 PM 27.2690 -80.1880 198° South 476 548 38,000  Level FlightAware ADS-B
Mon 06:03:35 PM 27.2000 -80.2130 198° South 475 547 38,000  Level FlightAware ADS-B
Mon 06:04:15 PM 27.1130 -80.2440 198° South 475 547 38,000  Level FlightAware ADS-B
Mon 06:04:51 PM 27.0410 -80.2710 198° South 477 549 38,000  Level FlightAware ADS-B
Mon 06:05:30 PM 26.9610 -80.2990 197° South 470 541 38,000  Level FlightAware ADS-B
Mon 06:06:00 PM 26.8940 -80.3240 198° South 470 541 38,000  Level FlightAware ADS-B
Mon 06:06:38 PM 26.8130 -80.3530 198° South 470 541 38,000  Level FlightAware ADS-B
Mon 06:07:13 PM 26.7400 -80.3790 198° South 470 541 38,000  Level FlightAware ADS-B
Mon 06:07:48 PM 26.6650 -80.4060 198° South 471 542 38,000  Level FlightAware ADS-B
Mon 06:08:23 PM 26.5930 -80.4320 198° South 471 542 38,000  Level FlightAware ADS-B
Mon 06:08:58 PM 26.5180 -80.4590 198° South 471 542 38,000  Level FlightAware ADS-B
Mon 06:09:32 PM 26.4450 -80.4850 198° South 472 543 38,000  Level FlightAware ADS-B
Mon 06:10:08 PM 26.3700 -80.5120 198° South 472 543 38,000  Level FlightAware ADS-B
Mon 06:10:43 PM 26.2980 -80.5370 197° South 471 542 38,000  Level FlightAware ADS-B
Mon 06:11:18 PM 26.2220 -80.5650 198° South 470 541 38,000  Level FlightAware ADS-B
Mon 06:11:52 PM 26.1480 -80.5910 198° South 470 541 38,000  Level FlightAware ADS-B
Mon 06:12:28 PM 26.0830 -80.6140 198° South 476 548 38,000  Level FlightAware ADS-B
Mon 06:13:02 PM 26.0020 -80.6430 198° South 475 547 38,000  Level FlightAware ADS-B
Mon 06:13:43 PM 25.9160 -80.6730 197° South 475 547 38,000  Level FlightAware ADS-B
Mon 06:14:17 PM 25.8450 -80.6980 198° South 474 545 38,000  Level FlightAware ADS-B
Mon 06:14:53 PM 25.7710 -80.7240 198° South 474 545 38,000  Level FlightAware ADS-B
Mon 06:15:29 PM 25.6930 -80.7520 198° South 476 548 38,000  Level FlightAware ADS-B
Mon 06:16:04 PM 25.6200 -80.7780 198° South 476 548 38,000  Level FlightAware ADS-B
Mon 06:16:39 PM 25.5460 -80.8040 198° South 469 540 38,000  Level FlightAware ADS-B
Mon 06:17:24 PM 25.4510 -80.8370 197° South 476 548 38,000  Level FlightAware ADS-B
Mon 06:17:45 PM 25.4100 -80.8550 202° Southwest 469 540 38,000  Level FlightAware ADS-B
Mon 06:18:17 PM 25.3590 -80.8990 218° Southwest 477 549 38,000  Level FlightAware ADS-B
Mon 06:18:54 PM 25.2990 -80.9740 229° Southwest 476 548 38,000  Level FlightAware ADS-B
Mon 06:19:29 PM 25.2480 -81.0350 227° Southwest 477 549 38,000 -171 Level FlightAware ADS-B
Mon 06:20:04 PM 25.1950 -81.0990 228° Southwest 478 550 37,800 -480 Descending FlightAware ADS-B
Mon 06:20:44 PM 25.1360 -81.1710 228° Southwest 480 552 37,400 -640 Descending FlightAware ADS-B
Mon 06:21:19 PM 25.0840 -81.2330 227° Southwest 483 556 37,000 -343 Descending FlightAware ADS-B
Mon 06:21:54 PM 25.0290 -81.3000 228° Southwest 479 551 37,000  Level FlightAware ADS-B
Mon 06:22:29 PM 24.9790 -81.3600 227° Southwest 481 554 37,000 -86 Level FlightAware ADS-B
Mon 06:23:04 PM 24.9250 -81.4250 228° Southwest 481 554 36,900 -600 Descending FlightAware ADS-B
Mon 06:23:39 PM 24.8700 -81.4910 227° Southwest 485 558 36,300 -1,371 Descending FlightAware ADS-B
Mon 06:24:14 PM 24.8160 -81.5550 227° Southwest 483 556 35,300 -1,859 Descending FlightAware ADS-B
Mon 06:24:50 PM 24.7640 -81.6170 227° Southwest 478 550 34,100 -1,971 Descending FlightAware ADS-B
Mon 06:25:24 PM 24.7100 -81.6810 227° Southwest 477 549 33,000 -1,913 Descending FlightAware ADS-B
Mon 06:25:59 PM 24.6580 -81.7430 227° Southwest 464 534 31,900 -1,886 Descending FlightAware ADS-B
Mon 06:26:34 PM 24.6060 -81.8060 228° Southwest 455 524 30,800 -1,886 Descending FlightAware ADS-B
Mon 06:27:09 PM 24.5570 -81.8630 227° Southwest 455 524 29,700 -1,481 Descending FlightAware ADS-B
Mon 06:27:51 PM 24.4980 -81.9270 225° Southwest 433 498 28,900 -1,200 Descending FlightAware ADS-B
Mon 06:28:29 PM 24.4400 -81.9800 220° Southwest 410 472 28,100 -1,397 Descending FlightAware ADS-B
Mon 06:29:04 PM 24.3910 -82.0260 221° Southwest 407 468 27,200 -1,733 Descending FlightAware ADS-B
Mon 06:29:14 PM 24.3730 -82.0450 224° Southwest 404 465 26,800 -2,717 Descending FlightAware ADS-B
Mon 06:29:57 PM 24.3230 -82.1100 230° Southwest 418 481 24,800 -2,400 Descending FlightAware ADS-B
Mon 06:30:34 PM 24.2770 -82.1690 229° Southwest 407 468 23,600 -2,026 Descending FlightAware ADS-B
Mon 06:31:14 PM 24.2250 -82.2350 229° Southwest 404 465 22,200 -1,184 Descending FlightAware ADS-B
Mon 06:31:50 PM 24.1870 -82.2840 230° Southwest 398 458 22,100 -83 Descending FlightAware ADS-B
Mon 06:32:26 PM 24.1510 -82.3310 230° Southwest 398 458 22,100 -1,297 Level FlightAware ADS-B
Mon 06:33:04 PM 24.1010 -82.3910 228° Southwest 375 432 20,500 -1,247 Descending FlightAware ADS-B
Mon 06:33:43 PM 24.0630 -82.4390 229° Southwest 375 432 20,500  Level FlightAware ADS-B
Mon 06:34:19 PM 24.0280 -82.4830 229° Southwest 375 432 20,500  Level FlightAware ADS-B
Mon 06:34:56 PM 23.9930 -82.5280 230° Southwest 375 432 20,500  Level FlightAware ADS-B
Mon 06:35:32 PM 23.9580 -82.5720 229° Southwest 375 432 20,500  Level FlightAware ADS-B
Mon 06:36:08 PM 23.9230 -82.6150 228° Southwest 375 432 20,500  Level FlightAware ADS-B
Mon 06:36:45 PM 23.8870 -82.6600 229° Southwest 375 432 20,500  Level FlightAware ADS-B
Mon 06:40:00 PM 23.5104 -82.5543 172° South  Level Estimated
Mon 06:41:00 PM 23.4203 -82.4685 139° Southeast  Level FlightAware Approximate
Mon 06:42:00 PM 23.3017 -82.4521 175° South  Level Estimated
Mon 06:43:00 PM 23.1830 -82.4358 180° South  Level Estimated
Mon 06:44:00 PM 23.0643 -82.4194 180° South  Level Estimated
Mon 06:45:00 PM 22.9891 -82.4091 180° South  Level Estimated
Mon 06:46:00 PM 22.9891 -82.4091 180° South  Level Estimated
Mon 06:47:00 PM 22.9891 -82.4091 180° South  Level Estimated
Mon 06:48:00 PM 22.9891 -82.4091 180° South  Level Estimated
Mon 06:49:00 PM 22.9891 -82.4091 180° South  Level Estimated
Mon 06:50:00 PM 22.9891 -82.4091 180° South  Level Estimated
Mon 06:51:00 PM 22.9891 -82.4091 180° South  Level Estimated
Mon 06:52:00 PM 22.9891 -82.4091 180° South  Level Estimated
Mon 06:53:00 PM 22.9891 -82.4091 180° South  Level Estimated
Mon 06:54:00 PM 22.9891 -82.4091 180° South  Level Estimated
Mon 06:55:00 PM 22.9891 -82.4091 180° South  Level Estimated
Mon 06:56:00 PM 22.9891 -82.4091 180° South  Level Estimated
Mon 06:57:00 PM 22.9891 -82.4091 180° South  Level Estimated
Mon 06:58:00 PM 22.9891 -82.4091 180° South  Level Estimated
Mon 06:59:00 PM 22.9891 -82.4091 180° South  Level Estimated
Mon 07:00:00 PM 22.9891 -82.4091 180° South  Level Estimated
Mon 07:01:00 PM 22.9891 -82.4091 180° South  Level Estimated
Mon 07:02:00 PM 22.9891 -82.4091 180° South  Level Estimated
Mon 07:03:00 PM 22.9891 -82.4091 180° South  Level Estimated
Mon 07:04:00 PM 22.9891 -82.4091 180° South  Level Estimated
Mon 07:05:00 PM 22.9891 -82.4091 180° South  Level Estimated

Login

Don't have an account? Register now (free) for customized features, flight alerts, and more!